Michigan HS Hockey Scores 2014-2015

Anyone can report missing Michigan scores using the Michigan spreadsheet.

Please verify on this page that a score is indeed missing before reporting it.

The number at the beginning of each line is the reference number to be used when reporting an error in that score.


Also available:Scores Sorted by Date for All States (Most Recent 1000 scores only)
_Last Updated _     March 21, 2015
Game ID ________TEAM________ MI GF GA ______OPPONENT______ State __DATE__   ___________INFO__________ Game ID
2481 Airport MI 5 7 New Boston Huron MI 20141118 _ _ 2481
1492 Airport MI 8 3 Grand Rapids Central MI 20141121     1492
142 Airport MI 0 10 Grosse Pointe Woods Liggett MI 20141203 _ _ 142
1596 Airport MI 2 4 Notre Dame Prep MI 20141210     1596
2485 Airport MI 3 11 New Boston Huron MI 20141212 _ _ 2485
4772 Airport MI 6 3 Grand Ledge MI 20141220 _ _ 4772
2775 Airport MI 5 3 Madison Heights Bishop Foley MI 20150106 _ _ 2775
4799 Airport MI 0 9 Gibraltar Carlson MI 20150113 _ _ 4799
4916 Airport MI 1 9 Gibraltar Carlson MI 20150122 _ _ 4916
6283 Airport MI 6 4 Holt MI 20150203 _ MPHSH Game 6283
8151 Airport MI 2 9 Notre Dame Prep MI 20150224 _ _ 8151
8305 Airport MI 1 14 Trenton MI 20150303 _ _ 8305
1533 Allen Park MI 2 9 Riverview MI 20141128     1533
1541 Allen Park MI 3 3 Gibraltar Carlson MI 20141129     1541
152 Allen Park MI 4 6 Ann Arbor Pioneer MI 20141205 _ _metro 152
1597 Allen Park MI 1 6 Divine Child MI 20141210     1597
1613 Allen Park MI 2 5 Gibraltar Carlson MI 20141212     1613
1690 Allen Park MI 0 7 Detroit Country Day MI 20141219     1690
1721 Allen Park MI 4 5 Grosse Ile MI 20141220     1721
2612 Allen Park MI 1 7 Wyandotte Roosevelt MI 20141226     2612
2618 Allen Park MI 4 4 Riverview Gabriel Richard MI 20141227     2618
2629 Allen Park MI 0 6 Woodhaven MI 20150102     2629
2638 Allen Park MI 3 5 Monroe St Mary CC MI 20150103     2638
2780 Allen Park MI 2 10 Trenton MI 20150107 _ _ 2780
3052 Allen Park MI 1 8 Grosse Pointe South MI 20150110 _ _ 3052
5767 Allen Park MI 1 4 Saline MI 20150121 _ _ 5767
8240 Allen Park MI 3 5 Riverview Gabriel Richard MI 20150131 _ _ 8240
6280 Allen Park MI 4 1 Lapeer MI 20150201 _ MPHSH Game 6280
6836 Allen Park MI 3 4 Portage Central MI 20150207 OT _ 6836
7933 Allen Park MI 2 6 Grosse Pointe South MI 20150216 _ _ 7933
7894 Allen Park MI 0 4 Detroit Country Day MI 20150221 _ _ 7894
92 Alpena MI 1 7 Escanaba MI 20141121 _ _ 92
99 Alpena MI 0 7 Escanaba MI 20141122 _ _ 99
106 Alpena MI 4 5 Cheboygan MI 20141125 _ _ 106
114 Alpena MI 3 1 Grosse Pointe North MI 20141128 _ _Huron Shores Showcase 114
120 Alpena MI 8 1 Negaunee MI 20141129 _ _Huron Shores Showcase 120
151 Alpena MI 3 2 Cadillac MI 20141205 _ _ 151
1575 Alpena MI 1 2 Petoskey MI 20141206     1575
2486 Alpena MI 2 1 Sault Ste Marie MI 20141213 _ _ 2486
1691 Alpena MI 2 3 Traverse City Central MI 20141219     1691
1804 Alpena MI 1 2 Traverse City West MI 20141220 _ _ 1804
1957 Alpena MI 3 4 East Kentwood MI 20141226 _ _ 1957
2617 Alpena MI 1 2 Walled Lake Central MI 20141227     2617
4779 Alpena MI 3 5 Gaylord MI 20150103   Big North Conference 4779
2784 Alpena MI 0 3 Cheboygan MI 20150107 _ _ 2784
3461 Alpena MI 1 1 Divine Child MI 20150110 OT _Lynn Auto Parts Showcase 3461
6134 Alpena MI 1 4 Sault Ste Marie MI 20150120 _ _ 6134
4918 Alpena MI 7 3 Cadillac MI 20150123 _ _BNC 4918
4977 Alpena MI 1 2 Traverse City Central MI 20150124 _ BNC 4977
6146 Alpena MI 7 0 Cadillac MI 20150130 _ _BNC 6146
6151 Alpena MI 1 4 Traverse City West MI 20150131 _ _BNC 6151
6388 Alpena MI 2 1 Portage Central MI 20150206 _ MPSHS Game 6388
6829 Alpena MI 2 4 Grand Rapids Kenowa Hills MI 20150207 _ MPHSH Game 6829
6847 Alpena MI 4 6 Royal Oak MI 20150208 _ _ 6847
8143 Alpena MI 4 2 Gaylord MI 20150218 _ _BNC 8143
2607 Ann Arbor Gabriel Richard MI 8 4 Kalamazoo Eagles MI 20141119 _ _ 2607
1604 Ann Arbor Gabriel Richard MI 7 8 Monroe St Mary CC MI 20141210     1604
1614 Ann Arbor Gabriel Richard MI 2 6 Big Rapids MI 20141212     1614
1667 Ann Arbor Gabriel Richard MI 4 4 Jeffers MI 20141213 _ _DIII Challenge 1667
1673 Ann Arbor Gabriel Richard MI 2 6 Divine Child MI 20141217     1673
1700 Ann Arbor Gabriel Richard MI 3 9 Grandville MI 20141219     1700
1710 Ann Arbor Gabriel Richard MI 0 4 Flint Powers MI 20141220     1710
2496 Ann Arbor Gabriel Richard MI 1 6 Portage Northern MI 20150103 _ _ 2496
2608 Ann Arbor Gabriel Richard MI 4 1 Royal Oak Shrine Catholic MI 20150104 _ _ 2608
3044 Ann Arbor Gabriel Richard MI 4 6 Livonia Franklin MI 20150107 _ _ 3044
2814 Ann Arbor Gabriel Richard MI 4 1 Ann Arbor Huron MI 20150110 _ _ 2814
4847 Ann Arbor Gabriel Richard MI 7 4 Monroe St Mary CC MI 20150117     4847
4908 Ann Arbor Gabriel Richard MI 1 6 Royal Oak Shrine Catholic MI 20150121 _ _ 4908
4942 Ann Arbor Gabriel Richard MI 4 2 Notre Dame Prep MI 20150123 _ _ 4942
6906 Ann Arbor Gabriel Richard MI 2 2 Madison Heights Bishop Foley MI 20150124 _   6906
6909 Ann Arbor Gabriel Richard MI 1 2 Riverview Gabriel Richard MI 20150129 OT   6909
5796 Ann Arbor Gabriel Richard MI 1 5 Jackson Lumen Christi MI 20150131 _ _ 5796
6912 Ann Arbor Gabriel Richard MI 9 0 Madison Heights Bishop Foley MI 20150204 _   6912
6406 Ann Arbor Gabriel Richard MI 4 2 Notre Dame Prep MI 20150207 _ _ 6406
6913 Ann Arbor Gabriel Richard MI 6 4 Kalamazoo Blades MI 20150210 _   6913
7036 Ann Arbor Gabriel Richard MI 3 2 Ann Arbor Huron MI 20150211     7036
7929 Ann Arbor Gabriel Richard MI 5 4 Ann Arbor Pioneer MI 20150217 _ AA Tourn Championship 7929
7930 Ann Arbor Gabriel Richard MI 6 5 Riverview Gabriel Richard MI 20150218 OT _ 7930
7931 Ann Arbor Gabriel Richard MI 2 3 Riverview Gabriel Richard MI 20150221 _ CSHL Championship 7931
8298 Ann Arbor Gabriel Richard MI 4 8 Pinckney MI 20150303 _ mhsaa pre-regional 8298
1499 Ann Arbor Huron MI 10 3 Kalamazoo United MI 20141122     1499
1403 Ann Arbor Huron MI 9 1 New Boston Huron MI 20141126 _ no league 1403
1404 Ann Arbor Huron MI 9 1 Monroe MI 20141206 _ SEC 1404
1405 Ann Arbor Huron MI 4 6 Livonia Franklin MI 20141210 _ non league 1405
1406 Ann Arbor Huron MI 9 2 Mattawan MI 20141212 _ non league 1406
1407 Ann Arbor Huron MI 3 5 Saline MI 20141213 _ SEC 1407
1438 Ann Arbor Huron MI 8 3 Pinckney MI 20141219 _   1438
2814 Ann Arbor Huron MI 1 4 Ann Arbor Gabriel Richard MI 20150110 _ _ 2814
3057 Ann Arbor Huron MI 3 6 Ann Arbor Skyline MI 20150112 _ _ 3057
4848 Ann Arbor Huron MI 6 7 Portage Northern MI 20150117 _ _ 4848
6135 Ann Arbor Huron MI 8 1 Dearborn Heights Crestwood MI 20150122 _ _ 6135
6138 Ann Arbor Huron MI 10 2 Temperance Bedford MI 20150124 _ _ 6138
6140 Ann Arbor Huron MI 6 4 Dexter MI 20150128 _ _ 6140
6144 Ann Arbor Huron MI 4 7 Ann Arbor Pioneer MI 20150130 _ _ 6144
6149 Ann Arbor Huron MI 9 1 Monroe MI 20150131 _ _ 6149
6205 Ann Arbor Huron MI 4 12 Howell MI 20150204 _ _ 6205
6832 Ann Arbor Huron MI 2 5 Saline MI 20150207 _ MPHSH Game 6832
7036 Ann Arbor Huron MI 2 3 Ann Arbor Gabriel Richard MI 20150211     7036
7522 Ann Arbor Huron MI 3 1 Fraser MI 20150214 _ _ 7522
7883 Ann Arbor Huron MI 5 8 Ann Arbor Pioneer MI 20150218 _ _ 7883
7884 Ann Arbor Huron MI 1 3 Chelsea MI 20150220 _ _ 7884
7940 Ann Arbor Huron MI 3 10 Walled Lake Western MI 20150221 _ _ 7940
8172 Ann Arbor Huron MI 1 5 Jackson MI 20150225 _ _ 8172
8317 Ann Arbor Huron MI 3 10 Novi MI 20150305 _ _ 8317
3 Ann Arbor Pioneer MI 2 1 Detroit Country Day MI 20141119 _ _Metro 3
7 Ann Arbor Pioneer MI 2 2 Divine Child MI 20141120 OT Metro 7
36 Ann Arbor Pioneer MI 0 4 Saline MI 20141126 _ Metro/SEC 36
135 Ann Arbor Pioneer MI 3 6 Wyandotte Roosevelt MI 20141203 _ _metro 135
152 Ann Arbor Pioneer MI 6 4 Allen Park MI 20141205 _ _metro 152
340 Ann Arbor Pioneer MI 3 1 Woodhaven MI 20141210 _ _Metro 340
1638 Ann Arbor Pioneer MI 8 0 Monroe MI 20141213     1638
1668 Ann Arbor Pioneer MI 6 2 Southgate Anderson MI 20141217     1668
2488 Ann Arbor Pioneer MI 4 6 Hancock MI 20150102 _ _Marquette Showcase 2488
2636 Ann Arbor Pioneer MI 2 1 Marquette MI 20150103     2636
2815 Ann Arbor Pioneer MI 4 2 Ann Arbor Skyline MI 20150110 _ _ 2815
3065 Ann Arbor Pioneer MI 5 3 Dearborn MI 20150114 _ _metro 3065
4841 Ann Arbor Pioneer MI 6 1 Temperance Bedford MI 20150116 _ _SEC 4841
4893 Ann Arbor Pioneer MI 11 2 Southgate Anderson MI 20150121 _ _ 4893
4949 Ann Arbor Pioneer MI 0 5 Grosse Pointe South MI 20150124 _ Metro 4949
5757 Ann Arbor Pioneer MI 5 2 Ann Arbor Skyline MI 20150128 _ Sec 5757
6144 Ann Arbor Pioneer MI 7 4 Ann Arbor Huron MI 20150130 _ _ 6144
6200 Ann Arbor Pioneer MI 0 1 Saline MI 20150131 _ _ 6200
6825 Ann Arbor Pioneer MI 13 5 Monroe MI 20150207 _ SEC 6825
7503 Ann Arbor Pioneer MI 5 6 Chelsea MI 20150211 _ SEC 7503
7505 Ann Arbor Pioneer MI 2 0 Dearborn MI 20150212 _ Metro 7505
7929 Ann Arbor Pioneer MI 4 5 Ann Arbor Gabriel Richard MI 20150217 _ AA Tourn Championship 7929
7883 Ann Arbor Pioneer MI 8 5 Ann Arbor Huron MI 20150218 _ _ 7883
8209 Ann Arbor Pioneer MI 5 3 Woodhaven MI 20150221 _ _ 8209
1480 Ann Arbor Skyline MI 4 8 Livonia Franklin MI 20141119     1480
1500 Ann Arbor Skyline MI 1 7 Troy MI 20141122     1500
1516 Ann Arbor Skyline MI 3 5 Dexter MI 20141126     1516
1556 Ann Arbor Skyline MI 0 4 Chelsea MI 20141203     1556
1576 Ann Arbor Skyline MI 5 6 Temperance Bedford MI 20141206     1576
338 Ann Arbor Skyline MI 7 4 Pinckney MI 20141210 _ Non-League 338
1639 Ann Arbor Skyline MI 3 3 Jackson MI 20141213     1639
1672 Ann Arbor Skyline MI 2 2 Dexter MI 20141217     1672
1713 Ann Arbor Skyline MI 8 0 Dearborn Heights Crestwood MI 20141220     1713
2647 Ann Arbor Skyline MI 3 5 Royal Oak Shrine Catholic MI 20150103     2647
2815 Ann Arbor Skyline MI 2 4 Ann Arbor Pioneer MI 20150110 _ _ 2815
3057 Ann Arbor Skyline MI 6 3 Ann Arbor Huron MI 20150112 _ _ 3057
6352 Ann Arbor Skyline MI 1 0 Macomb L'Anse Creuse North MI 20150114 _ _ 6352
5757 Ann Arbor Skyline MI 2 5 Ann Arbor Pioneer MI 20150128 _ Sec 5757
6286 Ann Arbor Skyline MI 4 0 Bloomfield MI 20150204 _ MPHSH Game 6286
1501 Auburn Hills Avondale MI 1 5 Bloomfield MI 20141122     1501
1517 Auburn Hills Avondale MI 2 3 Birmingham MI 20141126     1517
1552 Auburn Hills Avondale MI 5 5 Utica MI 20141129     1552
1593 Auburn Hills Avondale MI 0 9 Troy MI 20141206     1593
1598 Auburn Hills Avondale MI 2 8 Royal Oak MI 20141210     1598
1660 Auburn Hills Avondale MI 2 4 Royal Oak Shrine Catholic MI 20141213     1660
1692 Auburn Hills Avondale MI 1 3 Marysville MI 20141219     1692
1711 Auburn Hills Avondale MI 1 4 Notre Dame Prep MI 20141220     1711
2761 Auburn Hills Avondale MI 0 8 Grosse Pointe Woods Liggett MI 20150105     2761
2788 Auburn Hills Avondale MI 1 2 West Bloomfield MI 20150108 _ _ 2788
4851 Auburn Hills Avondale MI 0 4 Bloomfield MI 20150117 _ OAA 4851
4898 Auburn Hills Avondale MI 2 4 Fraser MI 20150121 _ _ 4898
5787 Auburn Hills Avondale MI 0 9 Farmington MI 20150128 _ _ 5787
1932 Bay Area Thunder MI 4 3 Swan Valley MI 20141119 OT Shootout 1932
1521 Bay Area Thunder MI 2 3 Midland Dow MI 20141126     1521
1397 Bay Area Thunder MI 5 0 Flushing MI 20141129 _ _ 1397
89 Bay Area Thunder MI 2 4 Midland MI 20141203 _ _ 89
1376 Bay Area Thunder MI 2 4 Lakeland MI 20141205 _ _ 1376
164 Bay Area Thunder MI 3 6 Walled Lake Northern MI 20141206 _ _ 164
1396 Bay Area Thunder MI 8 1 Mid-Michigan Storm MI 20141210 _ _ 1396
1369 Bay Area Thunder MI 8 0 Birmingham MI 20141212 _ Davison Invitational Semi-Final 1369
1368 Bay Area Thunder MI 4 5 Davison MI 20141213 _ Davison Invitational Championship 1368
2609 Bay Area Thunder MI 1 5 Bay City Central MI 20141215 _ _ 2609
1716 Bay Area Thunder MI 7 3 Grand Blanc MI 20141220     1716
3017 Bay Area Thunder MI 10 3 Swartz Creek/Clio MI 20150107 _ _ 3017
3063 Bay Area Thunder MI 7 1 Mid-Michigan Storm MI 20150114 _ _League game 3063
4894 Bay Area Thunder MI 5 1 Swan Valley MI 20150121 _ _League game 4894
6189 Bay Area Thunder MI 7 0 Freeland/Nouvel/Valley MI 20150128 _ Mid- Michigan Hockey Conference 6189
6821 Bay Area Thunder MI 3 3 Livonia Franklin MI 20150206 OT _GB Winter Classic Shoot Out loss in 11th round 6821
8243 Bay Area Thunder MI 1 6 Grand Blanc MI 20150207 _ _ 8243
7798 Bay Area Thunder MI 1 6 Bay City Central MI 20150209 _ _ 7798
318 Bay City Central MI 8 0 Marysville MI 20141122 _ _ 318
322 Bay City Central MI 0 3 Swan Valley MI 20141126 _ _ 322
1555 Bay City Central MI 4 2 Midland Dow MI 20141203     1555
330 Bay City Central MI 4 5 Muskegon Mona Shores MI 20141206 _ _ 330
334 Bay City Central MI 4 2 Midland MI 20141208 _ _ 334
2038 Bay City Central MI 1 6 Saginaw Heritage MI 20141210 _ _ 2038
2609 Bay City Central MI 5 1 Bay Area Thunder MI 20141215 _ _ 2609
4784 Bay City Central MI 1 5 Midland MI 20150107 _ _SVL 4784
3463 Bay City Central MI 1 0 Flint Powers MI 20150114 _ _ 3463
4821 Bay City Central MI 2 4 Escanaba MI 20150116 _ _ 4821
4879 Bay City Central MI 4 5 Traverse City Reps MI 20150117 _ _ 4879
4885 Bay City Central MI 5 3 Swan Valley MI 20150119 _ _ 4885
4919 Bay City Central MI 8 0 Jenison MI 20150123 _ _ 4919
4950 Bay City Central MI 2 4 Grandville MI 20150124 _ _ 4950
5754 Bay City Central MI 8 0 Mt Pleasant MI 20150128 _ _ 5754
6279 Bay City Central MI 2 5 Clarkston MI 20150201 _ MPHSH Game 6279
6288 Bay City Central MI 3 4 Midland Dow MI 20150204 _ _ 6288
6823 Bay City Central MI 4 5 New Baltimore Anchor Bay MI 20150207 OT _ 6823
7798 Bay City Central MI 6 1 Bay Area Thunder MI 20150209 _ _ 7798
7504 Bay City Central MI 1 1 Davison MI 20150211 OT _ 7504
7860 Bay City Central MI 3 0 Saginaw Heritage MI 20150218 _ _ 7860
8148 Bay City Central MI 10 0 Freeland/Nouvel/Valley MI 20150223 _ _ 8148
8171 Bay City Central MI 3 1 Lapeer MI 20150225 _ _ 8171
8261 Bay City Central MI 4 3 Holland West Ottawa MI 20150227 _ _ 8261
8302 Bay City Central MI 9 1 Mid-Michigan Storm MI 20150303 _ _ 8302
8377 Bay City Central MI 5 0 Swan Valley MI 20150305 _ _ 8377
8380 Bay City Central MI 4 3 Grand Blanc MI 20150307 _ _ 8380
8424 Bay City Central MI 7 2 Jackson MI 20150311   D1 Quarterfinal 8424
8429 Bay City Central MI 2 3 Grandville MI 20150313   D1 Semi 8429
33 Berkley MI 10 2 Macomb Dakota MI 20141125 _ _ 33
44 Berkley MI 5 4 Grand Rapids Kenowa Hills MI 20141129 _ _ 44
47 Berkley MI 1 4 Rockford MI 20141130 _ _ 47
153 Berkley MI 2 3 Rochester United MI 20141205 _ _ 153
1428 Berkley MI 6 4 Clarkston MI 20141212 _ _ 1428
1429 Berkley MI 7 2 Rochester Stoney Creek MI 20141213 _ _ 1429
1801 Berkley MI 6 4 Farmington Hills Harrison MI 20141218 _ _ 1801
1727 Berkley MI 3 1 Lake Orion MI 20141220     1727
1964 Berkley MI 10 3 Royal Oak MI 20141227 _ _ 1964
2786 Berkley MI 8 0 Farmington MI 20150108 _ _ 2786
3056 Berkley MI 7 4 Walled Lake Western MI 20150112 _ _ 3056
4849 Berkley MI 3 2 Farmington Hills Harrison MI 20150117 _ _ 4849
4951 Berkley MI 4 5 Novi MI 20150124 _ Novi wins in OT 4951
5763 Berkley MI 6 3 Lake Orion MI 20150129 _ _ 5763
6198 Berkley MI 0 3 Romeo MI 20150131 _ MAC/OAA Showcase 6198
6370 Berkley MI 1 6 Marquette MI 20150205 _ MPSHS Game 6370
7858 Berkley MI 3 6 Escanaba MI 20150207 _ _ 7858
6914 Berkley MI 8 3 Rochester Stoney Creek MI 20150210 _ _ 6914
7545 Berkley MI 3 4 Clarkston MI 20150214 _ _ 7545
7867 Berkley MI 0 8 Rochester United MI 20150216 _ _ 7867
7851 Berkley MI 6 1 Dexter MI 20150218 _ _ 7851
8149 Berkley MI 7 0 Bloomfield MI 20150223 _ _ 8149
8177 Berkley MI 4 4 Salem MI 20150226 _ _ot 8177
8295 Berkley MI 9 4 Farmington MI 20150228 _ _ 8295
8296 Berkley MI 6 3 Royal Oak MI 20150302 _ _ 8296
8312 Berkley MI 3 4 Brother Rice MI 20150304 _ _ 8312
93 Big Rapids MI 6 4 Lakeland MI 20141121 _ _ 93
31 Big Rapids MI 4 5 Jeffers MI 20141122 _ _Soo Elks Showcase 31
109 Big Rapids MI 2 4 Cadillac MI 20141126 _ _ 109
119 Big Rapids MI 1 5 Wyandotte Roosevelt MI 20141128 _ _ 119
121 Big Rapids MI 5 3 Monroe St Mary CC MI 20141129 _ _ 121
333 Big Rapids MI 7 3 Portage Central MI 20141206 _ __Non League 333
1614 Big Rapids MI 6 2 Ann Arbor Gabriel Richard MI 20141212     1614
1647 Big Rapids MI 7 6 Grand Rapids Kenowa Hills MI 20141213     1647
1707 Big Rapids MI 2 4 Sault Ste Marie MI 20141219     1707
1726 Big Rapids MI 3 0 Jackson Lumen Christi MI 20141220     1726
3460 Big Rapids MI 0 5 Muskegon Mona Shores MI 20150107 _ _ 3460
4786 Big Rapids MI 9 1 Freeland/Nouvel/Valley MI 20150109 _ _ 4786
2813 Big Rapids MI 0 5 Traverse City West MI 20150110 _ Battle For The Paddle 2813
4800 Big Rapids MI 5 1 Grand Rapids West Catholic MI 20150114 _ _ 4800
4853 Big Rapids MI 3 4 East Grand Rapids MI 20150117 _ _ 4853
4929 Big Rapids MI 1 2 Grosse Ile MI 20150123 _ _ 4929
5746 Big Rapids MI 3 4 Grand Rapids West Catholic MI 20150124 OT _ 5746
6145 Big Rapids MI 4 3 Cadillac MI 20150130 _ _ 6145
6150 Big Rapids MI 5 2 Cheboygan MI 20150131 _ _ 6150
6364 Big Rapids MI 4 1 Mt Pleasant MI 20150204 _ _ 6364
7876 Big Rapids MI 5 7 Kingsford MI 20150207 _ _ 7876
6849 Big Rapids MI 7 5 Canton MI 20150208 _ MPHSH Game 6849
7935 Big Rapids MI 4 1 Manistee MI 20150218 _ _ 7935
8339 Big Rapids MI 0 7 Flint Powers MI 20150307 _ _ 8339
11 Birmingham MI 6 5 New Baltimore Anchor Bay MI 20141121 _ _ 11
105 Birmingham MI 0 8 Utica Eisenhower MI 20141122 _ _ 105
1517 Birmingham MI 3 2 Auburn Hills Avondale MI 20141126     1517
40 Birmingham MI 4 3 Bloomfield MI 20141128 _ OAA 40
1550 Birmingham MI 1 9 Romeo MI 20141129     1550
4762 Birmingham MI 3 6 Clarkston MI 20141204 _ _ 4762
1581 Birmingham MI 8 3 Fraser MI 20141206     1581
1369 Birmingham MI 0 8 Bay Area Thunder MI 20141212 _ Davison Invitational Semi-Final 1369
1370 Birmingham MI 4 3 Cadillac MI 20141213 _ Davison Invitational 1370
1669 Birmingham MI 4 7 Troy MI 20141217     1669
2641 Birmingham MI 1 4 Romeo MI 20150103     2641
4781 Birmingham MI 1 5 Grosse Pointe North MI 20150107 _ _ 4781
4812 Birmingham MI 1 5 Troy MI 20150115 _ _ 4812
4850 Birmingham MI 6 7 Davison MI 20150117 OT _ 4850
5744 Birmingham MI 1 3 Livonia Churchill MI 20150121 _ _ 5744
4914 Birmingham MI 3 3 Bloomfield MI 20150122 OT OAA 4914
8233 Birmingham MI 1 9 Port Huron Northern MI 20150228 _ Non-League 8233
23 Bloomfield MI 7 1 Notre Dame Prep MI 20141119 _ _ 23
1501 Bloomfield MI 5 1 Auburn Hills Avondale MI 20141122     1501
40 Bloomfield MI 3 4 Birmingham MI 20141128 _ OAA 40
45 Bloomfield MI 4 3 Warren Mott MI 20141129 _ _ 45
2352 Bloomfield MI 2 3 Troy MI 20141204 _ OAA LEAGUE 2352
1587 Bloomfield MI 2 2 Livonia Churchill MI 20141206     1587
1615 Bloomfield MI 4 3 Utica MI 20141212     1615
1659 Bloomfield MI 0 8 Royal Oak MI 20141213     1659
2356 Bloomfield MI 1 1 West Bloomfield MI 20141218 _ OAA LEAGUE 2356
4777 Bloomfield MI 3 5 Port Huron MI 20150103 _ _ 4777
4813 Bloomfield MI 2 6 Walled Lake Western MI 20150115 _ _ 4813
4851 Bloomfield MI 4 0 Auburn Hills Avondale MI 20150117 _ OAA 4851
4914 Bloomfield MI 3 3 Birmingham MI 20150122 OT OAA 4914
4952 Bloomfield MI 3 5 Royal Oak MI 20150124 _ OAA 4952
6361 Bloomfield MI 8 0 Utica MI 20150131     6361
6284 Bloomfield MI 4 3 KBH Unified MI 20150203 _ MPHSH Game 6284
6286 Bloomfield MI 0 4 Ann Arbor Skyline MI 20150204 _ MPHSH Game 6286
7546 Bloomfield MI 0 4 Waterford Unified MI 20150214 _ _ 7546
8149 Bloomfield MI 0 7 Berkley MI 20150223 _ _ 8149
279 Brighton MI 2 4 Detroit Catholic Central MI 20141122 _ _ 279
1446 Brighton MI 2 5 Orchard Lake St Marys MI 20141126   MIHL North 1446
1526 Brighton MI 2 5 Rochester United MI 20141128     1526
1539 Brighton MI 0 2 Livonia Stevenson MI 20141129     1539
144 Brighton MI 3 4 Howell MI 20141203 _ _ 144
1454 Brighton MI 2 1 U of D Jesuit MI 20141206   MIHL South 1454
1605 Brighton MI 6 4 Novi MI 20141210     1605
3045 Brighton MI 2 2 Canton MI 20141215 _ _ 3045
1471 Brighton MI 3 5 Brother Rice MI 20141217   NonCon 1471
1730 Brighton MI 3 2 Livonia Stevenson MI 20141220     1730
2625 Brighton MI 6 3 Livonia Churchill MI 20150102     2625
2763 Brighton MI 6 3 South Lyon MI 20150105     2763
3050 Brighton MI 2 1 Houghton MI 20150109 _ _ 3050
3055 Brighton MI 5 2 Calumet MI 20150110 _ _ 3055
4870 Brighton MI 2 2 Novi MI 20150117 _ _ 4870
4976 Brighton MI 3 3 Salem MI 20150124 _ _KLAA 4976
5760 Brighton MI 5 2 Plymouth MI 20150128 _ _ 5760
7795 Brighton MI 1 1 Livonia Stevenson MI 20150206 _ _ 7795
7553 Brighton MI 0 1 Grand Rapids Catholic Central MI 20150213     7553
7565 Brighton MI 3 4 Forest Hills Central MI 20150214     7565
7890 Brighton MI 1 0 Hartland MI 20150221 _ KLAA Championship Game 7890
8174 Brighton MI 1 2 Hartland MI 20150226 _ _ 8174
8383 Brighton MI 0 3 Salem MI 20150306     8383
1442 Brother Rice MI 4 3 Livonia Stevenson MI 20141119   NonCon 1442
29 Brother Rice MI 6 1 Grosse Pointe North MI 20141122 _ _ 29
281 Brother Rice MI 2 4 Detroit Catholic Central MI 20141126 _ _MIHL League Game 281
149 Brother Rice MI 8 0 Port Huron Northern MI 20141204 _ MIHL North 149
328 Brother Rice MI 3 1 Trenton MI 20141206 _ _ 328
1457 Brother Rice MI 8 0 Hartland MI 20141210   MIHL North 1457
1463 Brother Rice MI 1 6 St. Andrews ON 20141212   MIHL North 1463
1076 Brother Rice MI 3 0 Notre Dame WI 20141213     1076
1471 Brother Rice MI 5 3 Brighton MI 20141217   NonCon 1471
1476 Brother Rice MI 2 4 Cranbrook MI 20141220   MIHL North 1476
2777 Brother Rice MI 10 1 Port Huron Northern MI 20150107 _ MIHL North 2777
4790 Brother Rice MI 6 3 De La Salle MI 20150110 _ MIHL League 4790
4828 Brother Rice MI 5 3 Hancock MI 20150116 _ _Soo Lions Showcase 4828
4852 Brother Rice MI 4 3 Sault Ste Marie MI 20150117 OT Soo Lions Showcase 4852
4895 Brother Rice MI 3 1 Detroit Catholic Central MI 20150121 _ _MIHL North 4895
6141 Brother Rice MI 7 0 Orchard Lake St Marys MI 20150128 _ MIHL League 6141
6142 Brother Rice MI 5 4 Trenton MI 20150130 _ _MIHL Cross Division 6142
6208 Brother Rice MI 3 1 Rochester United MI 20150204 _ _ 6208
6403 Brother Rice MI 7 3 Orchard Lake St Marys MI 20150207 _ MIHL League 6403
7561 Brother Rice MI 1 3 Culver Prep MM 20150213     7561
7786 Brother Rice MI 1 0 Notre Dame WI 20150214     7786
7882 Brother Rice MI 2 3 U of D Jesuit MI 20150217 _ MIHL 7882
8208 Brother Rice MI 1 4 Cranbrook MI 20150220 _ _MIHL North 8208
8213 Brother Rice MI 6 1 De La Salle MI 20150222 _ _Catholic League @OLSM 8213
8176 Brother Rice MI 2 1 Northville MI 20150226 _ _ 8176
8312 Brother Rice MI 4 3 Berkley MI 20150304 _ _ 8312
8382 Brother Rice MI 8 3 Rochester Stoney Creek MI 20150307 _ Regional Final 8382
8396 Brother Rice MI 4 3 Hartland MI 20150310 4OT   8396
8431 Brother Rice MI 4 0 Grosse Pointe South MI 20150313   D2 Semi 8431
8433 Brother Rice MI 6 3 Livonia Stevenson MI 20150314   MI D2 State Final 8433
1398 Cadillac MI 6 2 Cheboygan MI 20141122 _ _ 1398
109 Cadillac MI 4 2 Big Rapids MI 20141126 _ _ 109
1399 Cadillac MI 3 1 Dearborn MI 20141128 _ _ 1399
1400 Cadillac MI 6 0 Fraser MI 20141129 _ _ 1400
151 Cadillac MI 2 3 Alpena MI 20141205 _ _ 151
341 Cadillac MI 2 5 Traverse City Central MI 20141210 _ BNC 341
1367 Cadillac MI 2 3 Davison MI 20141212 _ Davison Invitational Semi-Final 1367
1370 Cadillac MI 3 4 Birmingham MI 20141213 _ Davison Invitational 1370
4771 Cadillac MI 5 2 Gaylord MI 20141219   Big North Conference 4771
4776 Cadillac MI 2 1 Traverse City Reps MI 20150102 OT _ 4776
2671 Cadillac MI 3 4 Traverse City West MI 20150107 OT _ 2671
2808 Cadillac MI 7 3 Manistee MI 20150109 _ _ 2808
2811 Cadillac MI 2 7 Davison MI 20150110 _ _ 2811
3129 Cadillac MI 2 6 Traverse City Central MI 20150114 _ BNC 3129
4819 Cadillac MI 6 1 Petoskey MI 20150116 _ _ 4819
4918 Cadillac MI 3 7 Alpena MI 20150123 _ _BNC 4918
6817 Cadillac MI 6 4 Gaylord MI 20150128   Big North Conference 6817
6145 Cadillac MI 3 4 Big Rapids MI 20150130 _ _ 6145
6146 Cadillac MI 0 7 Alpena MI 20150130 _ _BNC 6146
6391 Cadillac MI 6 4 Mattawan MI 20150206 _ _ 6391
6397 Cadillac MI 3 4 Walled Lake Northern MI 20150207 _ _ 6397
7032 Cadillac MI 3 4 Traverse City West MI 20150211 OT BNC 7032
8170 Cadillac MI 5 6 Cheboygan MI 20150225 _ _ 8170
1527 Calumet MI 2 5 Hancock MI 20141128     1527
1546 Calumet MI 5 4 Hancock MI 20141129     1546
1452 Calumet MI 1 5 Cranbrook MI 20141205   MIHL North 1452
1455 Calumet MI 2 7 Cranbrook MI 20141206   MIHL North 1455
1633 Calumet MI 0 3 Rochester United MI 20141212     1633
1643 Calumet MI 3 6 Farmington Hills Harrison MI 20141213     1643
2663 Calumet MI 2 5 Houghton MI 20141216 _ _ 2663
2613 Calumet MI 1 6 Houghton MI 20141226     2613
1971 Calumet MI 3 1 Sault Ste Marie MI 20141227 _ _ 1971
2667 Calumet MI 1 2 Marquette MI 20141230 OT _ 2667
2643 Calumet MI 8 0 Kingsford MI 20150103     2643
2803 Calumet MI 3 4 Novi MI 20150109 _ _ 2803
3055 Calumet MI 2 5 Brighton MI 20150110 _ _ 3055
4844 Calumet MI 1 6 U of D Jesuit MI 20150116 _ _ 4844
6095 Calumet MI 1 6 U of D Jesuit MI 20150117 _ _ 6095
4920 Calumet MI 4 3 Escanaba MI 20150123 OT _ 4920
7496 Calumet MI 6 4 Negaunee MI 20150127 _ _ 7496
7497 Calumet MI 9 4 Kingsford MI 20150131 _ _ 7497
6367 Calumet MI 2 4 Hancock MI 20150205 _ _ 6367
7510 Calumet MI 4 5 Grandville MI 20150213 _ _shootout no overtime 7510
7564 Calumet MI 3 0 Grand Rapids Christian MI 20150214     7564
7841 Calumet MI 3 2 Houghton MI 20150217 _ GLHC Game 7841
8145 Calumet MI 3 4 Escanaba MI 20150220 OT _GLHC Game 8145
8146 Calumet MI 3 1 Negaunee MI 20150221 _ _GLHC Game 8146
8216 Calumet MI 3 2 Marquette MI 20150226 OT _ 8216
8332 Calumet MI 8 0 Jeffers MI 20150305 _ Region 17 Mercy Rule Game 8332
8381 Calumet MI 1 2 Houghton MI 20150307 OT Region 17 Championship game 8381
12 Canton MI 3 0 Chelsea MI 20141121 _ _ 12
110 Canton MI 0 1 Plymouth MI 20141126 _ _ 110
122 Canton MI 4 4 Salem MI 20141129 _ _ 122
136 Canton MI 4 3 Farmington MI 20141203 OT _ 136
154 Canton MI 3 2 Grand Blanc MI 20141205 _ _ 154
1603 Canton MI 1 3 Livonia Churchill MI 20141210     1603
1616 Canton MI 2 3 South Lyon MI 20141212     1616
3045 Canton MI 2 2 Brighton MI 20141215 _ _ 3045
1683 Canton MI 1 7 Romeo MI 20141217     1683
1720 Canton MI 1 4 Grandville MI 20141220     1720
4801 Canton MI 0 5 Plymouth MI 20150114     4801
4876 Canton MI 1 6 Salem MI 20150117 _ _KLAA 4876
4887 Canton MI 1 6 Northville MI 20150119 _ _ 4887
6136 Canton MI 1 6 Sault Ste Marie MI 20150123 _ _ 6136
4953 Canton MI 1 4 Marquette MI 20150124 _ _ 4953
4987 Canton MI 2 5 Grosse Pointe Woods Liggett MI 20150128 _ _ 4987
6191 Canton MI 3 9 Novi MI 20150130 _ _ 6191
6197 Canton MI 3 4 Livonia Franklin MI 20150131 _ _ 6197
7794 Canton MI 1 6 Livonia Stevenson MI 20150204 _ _KLAA League Game 7794
6385 Canton MI 3 6 Grand Rapids Kenowa Hills MI 20150206 _ MPSHS Game 6385
6849 Canton MI 5 7 Big Rapids MI 20150208 _ MPHSH Game 6849
9094 Canton MI 2 5 Dexter MI 20150211 _ _ 9094
9095 Canton MI 3 3 Walled Lake Central MI 20150221 _ _ 9095
9096 Canton MI 2 4 Walled Lake Western MI 20150225 _ _ 9096
9097 Canton MI 9 1 Dearborn Heights Crestwood MI 20150227 _ _ 9097
9098 Canton MI 3 4 Northville MI 20150302 _ _ 9098
2350 Capital Area Patriots MI 2 0 Madison Heights Bishop Foley MI 20141122 _ _ 2350
1385 Capital Area Patriots MI 5 4 Grand Ledge MI 20141204 _ _ 1385
1646 Capital Area Patriots MI 7 2 Grand Rapids Central MI 20141213     1646
1678 Capital Area Patriots MI 0 5 Jackson MI 20141217     1678
1956 Capital Area Patriots MI 3 11 Okemos MI 20141220 _ _ 1956
4793 Capital Area Patriots MI 2 3 KBH Unified MI 20150110 _ _ 4793
4815 Capital Area Patriots MI 5 2 Grand Ledge MI 20150115 _ _ 4815
4968 Capital Area Patriots MI 2 5 Notre Dame Prep MI 20150124 _ _ 4968
8287 Capital Area Patriots MI 2 5 Okemos MI 20150218 _ _ 8287
8319 Capital Area Patriots MI 5 7 Grand Ledge MI 20150305 _ _ 8319
1484 Cheboygan MI 6 0 Petoskey MI 20141119     1484
1398 Cheboygan MI 2 6 Cadillac MI 20141122 _ _ 1398
106 Cheboygan MI 5 4 Alpena MI 20141125 _ _ 106
1547 Cheboygan MI 1 5 Marquette MI 20141129     1547
158 Cheboygan MI 2 6 Walled Lake Northern MI 20141205 _ _ 158
1592 Cheboygan MI 0 6 Saline MI 20141206     1592
1612 Cheboygan MI 2 3 Jeffers MI 20141211 _ _ 1612
2664 Cheboygan MI 10 2 L'Anse MI 20141219 _ _ 2664
2665 Cheboygan MI 7 4 Kingsford MI 20141220 _ _ 2665
2666 Cheboygan MI 0 5 Sault Ste Marie MI 20141230 _ _ 2666
2624 Cheboygan MI 2 6 Escanaba MI 20150102     2624
2653 Cheboygan MI 4 2 Jeffers MI 20150103 _ Jeffers New Years Invite 2653
2784 Cheboygan MI 3 0 Alpena MI 20150107 _ _ 2784
4834 Cheboygan MI 2 4 Midland MI 20150116 _ _ 4834
4866 Cheboygan MI 0 4 Midland Dow MI 20150117 _ _ 4866
6353 Cheboygan MI 4 7 Traverse City Reps MI 20150120 _ _ 6353
6355 Cheboygan MI 6 3 Gaylord MI 20150124 _ _ 6355
6358 Cheboygan MI 6 1 Manistee MI 20150130 _ _ 6358
6150 Cheboygan MI 2 5 Big Rapids MI 20150131 _ _ 6150
6377 Cheboygan MI 3 2 Davison MI 20150206 _ _ 6377
6407 Cheboygan MI 4 5 South Lyon MI 20150207 _ _ 6407
6916 Cheboygan MI 7 4 Petoskey MI 20150211 _ _ 6916
8165 Cheboygan MI 4 6 Manistee MI 20150220 _ _ 8165
8167 Cheboygan MI 8 3 Petoskey MI 20150221 _ _ 8167
8170 Cheboygan MI 6 5 Cadillac MI 20150225 _ _ 8170
8304 Cheboygan MI 3 6 Sault Ste Marie MI 20150302 _ _ 8304
12 Chelsea MI 0 3 Canton MI 20141121 _ _ 12
1537 Chelsea MI 7 3 Waterford Unified MI 20141128     1537
1553 Chelsea MI 4 1 Walled Lake Central MI 20141129     1553
1556 Chelsea MI 4 0 Ann Arbor Skyline MI 20141203     1556
1579 Chelsea MI 3 1 Dexter MI 20141206     1579
1433 Chelsea MI 5 5 Grosse Ile MI 20141210 _ non league 1433
1617 Chelsea MI 3 2 Gaylord MI 20141212     1617
1640 Chelsea MI 5 1 East Grand Rapids MI 20141213     1640
1679 Chelsea MI 4 2 Jackson Lumen Christi MI 20141217     1679
1712 Chelsea MI 7 2 Temperance Bedford MI 20141220     1712
2491 Chelsea MI 0 3 Flint Powers MI 20150103 _ _ 2491
4791 Chelsea MI 9 0 Monroe MI 20150110 _ _ 4791
4798 Chelsea MI 0 1 Riverview MI 20150113 _ _ 4798
4896 Chelsea MI 5 3 Woodhaven MI 20150121 _ _ 4896
5769 Chelsea MI 2 7 Saline MI 20150127 _ _ 5769
6366 Chelsea MI 5 1 Farmington MI 20150204 _ _ 6366
7874 Chelsea MI 1 3 Kingsford MI 20150205 _ _ 7874
7503 Chelsea MI 6 5 Ann Arbor Pioneer MI 20150211 _ SEC 7503
7880 Chelsea MI 4 3 Jackson Lumen Christi MI 20150213 _ _ 7880
7884 Chelsea MI 3 1 Ann Arbor Huron MI 20150220 _ _ 7884
8173 Chelsea MI 6 7 Davison MI 20150225 OT _ 8173
8307 Chelsea MI 2 4 Okemos MI 20150304 _ _state playoffs 8307
1488 Clarkston MI 0 4 Northville MI 20141121     1488
1502 Clarkston MI 2 3 Livonia Churchill MI 20141122     1502
1534 Clarkston MI 0 2 South Lyon MI 20141128     1534
1379 Clarkston MI 4 2 Lapeer MI 20141129 _ _ 1379
4762 Clarkston MI 6 3 Birmingham MI 20141204 _ _ 4762
1577 Clarkston MI 3 7 Farmington Hills Harrison MI 20141206     1577
1428 Clarkston MI 4 6 Berkley MI 20141212 _ _ 1428
1651 Clarkston MI 0 8 Lake Orion MI 20141213     1651
1704 Clarkston MI 5 4 Macomb Dakota MI 20141219     1704
1736 Clarkston MI 1 7 Novi MI 20141220     1736
2495 Clarkston MI 0 5 Rochester United MI 20150103 _ _ 2495
3054 Clarkston MI 7 2 Farmington MI 20150110 _ _ 3054
4974 Clarkston MI 0 8 Rochester United MI 20150124 _ _ 4974
6279 Clarkston MI 5 2 Bay City Central MI 20150201 _ MPHSH Game 6279
6386 Clarkston MI 4 7 Reeths Puffer MI 20150206 _ MPSHS Game 6386
7507 Clarkston MI 6 1 Waterford Unified MI 20150212 _ _ 7507
7545 Clarkston MI 4 3 Berkley MI 20150214 _ _ 7545
7936 Clarkston MI 6 2 Farmington MI 20150218 _ _ 7936
8222 Clarkston MI 1 6 Howell MI 20150227 _ _ 8222
1443 Cranbrook MI 5 3 Grosse Pointe North MI 20141121   MIHL North 1443
18 Cranbrook MI 8 1 Port Huron Northern MI 20141122 _ MIHL North 18
1445 Cranbrook MI 5 2 Trenton MI 20141126   MIHL South 1445
1447 Cranbrook MI 2 1 Livonia Stevenson MI 20141128   MIHL North 1447
1450 Cranbrook MI 4 6 Rochester United MI 20141129   MIHL North 1450
1452 Cranbrook MI 5 1 Calumet MI 20141205   MIHL North 1452
1455 Cranbrook MI 7 2 Calumet MI 20141206   MIHL North 1455
1461 Cranbrook MI 4 0 Grand Rapids Catholic Central MI 20141212   MIHL North 1461
1466 Cranbrook MI 5 2 Flint Powers MI 20141213   MIHL North 1466
1469 Cranbrook MI 4 2 Orchard Lake St Marys MI 20141217   MIHL North 1469
1476 Cranbrook MI 4 2 Brother Rice MI 20141220   MIHL North 1476
4792 Cranbrook MI 1 1 Detroit Catholic Central MI 20150110 OT _MIHL North 4792
4820 Cranbrook MI 4 3 De La Salle MI 20150116 OT _MIHL Cross Division 4820
4871 Cranbrook MI 4 5 Orchard Lake St Marys MI 20150117 OT _MIHL North 4871
4921 Cranbrook MI 2 2 U of D Jesuit MI 20150123 OT _MIHL Cross Division 4921
4971 Cranbrook MI 1 1 Plymouth MI 20150124 2OT _Non League 4971
5773 Cranbrook MI 5 4 Detroit Catholic Central MI 20150130 _ _MIHL North 5773
6116 Cranbrook MI 4 0 Grosse Pointe North MI 20150131 _ _MIHL Cross Division 6116
6376 Cranbrook MI 3 1 Port Huron Northern MI 20150206 _ MIHL North 6376
7877 Cranbrook MI 2 0 U of D Jesuit MI 20150207 _ MIHL 7877
7773 Cranbrook MI 1 2 Notre Dame WI 20150213     7773
7574 Cranbrook MI 6 2 Rochester United MI 20150214     7574
8208 Cranbrook MI 4 1 Brother Rice MI 20150220 _ _MIHL North 8208
8212 Cranbrook MI 6 2 De La Salle MI 20150221 _ _MIHL Crossover 8212
8229 Cranbrook MI 6 4 Trenton MI 20150227 _ _MIHL Crossover 8229
8310 Cranbrook MI 8 0 Notre Dame Prep MI 20150304 _ _ 8310
8337 Cranbrook MI 4 1 Detroit Country Day MI 20150307 _ _ 8337
8427 Cranbrook MI 9 4 Wyandotte Roosevelt MI 20150311   D3 Quarterfinal 8427
8432 Cranbrook MI 8 0 Riverview MI 20150313   D3 Semi 8432
8434 Cranbrook MI 4 0 Houghton MI 20150314   MI D3 State Final 8434
30 Davison MI 7 0 Grand Ledge MI 20141122 _ _ 30
37 Davison MI 9 1 KBH Unified MI 20141126 _ _ 37
48 Davison MI 6 4 Lakeland MI 20141201 _ _ 48
137 Davison MI 8 0 Fenton MI 20141203 _ _ 137
159 Davison MI 1 3 Reeths Puffer MI 20141206 _ _ 159
1366 Davison MI 3 1 Lapeer MI 20141208 _   1366
1367 Davison MI 3 2 Cadillac MI 20141212 _ Davison Invitational Semi-Final 1367
1368 Davison MI 5 4 Bay Area Thunder MI 20141213 _ Davison Invitational Championship 1368
2771 Davison MI 0 8 Novi MI 20141219 _ _ 2771
1731 Davison MI 1 2 Macomb Dakota MI 20141220     1731
2773 Davison MI 6 2 Swartz Creek/Clio MI 20150103 _ _ 2773
2776 Davison MI 2 4 Saginaw Heritage MI 20150107 _ _ 2776
2811 Davison MI 7 2 Cadillac MI 20150110 _ _ 2811
4850 Davison MI 7 6 Birmingham MI 20150117 OT _ 4850
4897 Davison MI 4 2 Midland MI 20150121 _ _ 4897
4954 Davison MI 4 1 Portage Central MI 20150124 _ _ 4954
4986 Davison MI 4 2 Flint Powers MI 20150128 _ _ 4986
5795 Davison MI 5 2 Mt Pleasant MI 20150131 _ _ 5795
7499 Davison MI 0 4 Farmington Hills Harrison MI 20150205 _ _ 7499
6377 Davison MI 2 3 Cheboygan MI 20150206 _ _ 6377
7504 Davison MI 1 1 Bay City Central MI 20150211 OT _ 7504
7519 Davison MI 2 4 Romeo MI 20150214 _ _ 7519
8164 Davison MI 4 3 Grand Blanc MI 20150218 OT _ 8164
8166 Davison MI 1 2 Midland Dow MI 20150220 _ _ 8166
8173 Davison MI 7 6 Chelsea MI 20150225 OT _ 8173
1441 De La Salle MI 7 3 Macomb Dakota MI 20141119   NonCon 1441
1444 De La Salle MI 2 5 Orchard Lake St Marys MI 20141122   MIHL South 1444
113 De La Salle MI 4 5 Utica Eisenhower MI 20141126 _ _ 113
85 De La Salle MI 2 1 Traverse City Central MI 20141129 _ _ 85
1449 De La Salle MI 4 3 Traverse City West MI 20141129   MIHL South 1449
1453 De La Salle MI 3 2 Marquette MI 20141205   NonCon 1453
1456 De La Salle MI 3 4 Marquette MI 20141206   NonCon 1456
1464 De La Salle MI 2 1 Grosse Pointe North MI 20141213   MIHL South 1464
1670 De La Salle MI 3 2 Wyandotte Roosevelt MI 20141217     1670
1473 De La Salle MI 3 7 U of D Jesuit MI 20141219   MIHL South 1473
1477 De La Salle MI 2 3 U of D Jesuit MI 20141220   MIHL South 1477
4790 De La Salle MI 3 6 Brother Rice MI 20150110 _ MIHL League 4790
3467 De La Salle MI 0 4 Port Huron Northern MI 20150115 _ MIHL Crossover 3467
4820 De La Salle MI 3 4 Cranbrook MI 20150116 OT _MIHL Cross Division 4820
4955 De La Salle MI 2 5 Trenton MI 20150124 _ _MIHL South 4955
5755 De La Salle MI 5 4 Grosse Pointe North MI 20150128 _ _MIHL South 5755
6206 De La Salle MI 1 4 Trenton MI 20150204 _ _MIHL South 6206
7033 De La Salle MI 3 6 Detroit Country Day MI 20150212 _ _ 7033
7570 De La Salle MI 4 5 Grandville MI 20150214     7570
8207 De La Salle MI 0 5 Detroit Catholic Central MI 20150218 _ _MIHL Crossover 8207
8212 De La Salle MI 2 6 Cranbrook MI 20150221 _ _MIHL Crossover 8212
8213 De La Salle MI 1 6 Brother Rice MI 20150222 _ _Catholic League @OLSM 8213
8375 De La Salle MI 3 4 Grosse Pointe South MI 20150304 OT _ 8375
1485 Dearborn MI 2 6 Saline MI 20141119     1485
1399 Dearborn MI 1 3 Cadillac MI 20141128 _ _ 1399
1540 Dearborn MI 4 2 Freeland/Nouvel/Valley MI 20141129     1540
1557 Dearborn MI 0 6 Gibraltar Carlson MI 20141203     1557
1566 Dearborn MI 0 6 Detroit Country Day MI 20141205     1566
1599 Dearborn MI 3 6 Riverview MI 20141210     1599
1655 Dearborn MI 8 1 Monroe St Mary CC MI 20141213     1655
6131 Dearborn MI 4 5 Grosse Pointe South MI 20141215 OT _metro 6131
1671 Dearborn MI 3 7 Dearborn Heights Crestwood MI 20141217     1671
6349 Dearborn MI 6 5 Southgate Anderson MI 20141222 OT _ 6349
6350 Dearborn MI 3 9 Woodhaven MI 20150107 _ _ 6350
3027 Dearborn MI 6 1 Grand Rapids Northview MI 20150110 _ _ 3027
3065 Dearborn MI 3 5 Ann Arbor Pioneer MI 20150114 _ _metro 3065
4858 Dearborn MI 4 6 Grosse Ile MI 20150117 _ _ 4858
6354 Dearborn MI 0 8 Wyandotte Roosevelt MI 20150124 _ _ 6354
6356 Dearborn MI 2 4 Riverview MI 20150127 _ _ 6356
6281 Dearborn MI 2 1 Dexter MI 20150202 _ MPHSH Game 6281
6838 Dearborn MI 0 4 Divine Child MI 20150207 _ _ 6838
6917 Dearborn MI 5 6 Monroe St Mary CC MI 20150211 _ _ 6917
7505 Dearborn MI 0 2 Ann Arbor Pioneer MI 20150212 _ Metro 7505
8394 Dearborn MI 0 4 U of D Jesuit MI 20150307     8394
4764 Dearborn Heights Crestwood MI 1 4 Lakeville/Goodrich/N Branch MI 20141206     4764
2662 Dearborn Heights Crestwood MI 3 3 Fraser MI 20141211 OT _ 2662
4768 Dearborn Heights Crestwood MI 1 9 Gibraltar Carlson MI 20141213 _ _ 4768
1671 Dearborn Heights Crestwood MI 7 3 Dearborn MI 20141217     1671
1713 Dearborn Heights Crestwood MI 0 8 Ann Arbor Skyline MI 20141220     1713
3019 Dearborn Heights Crestwood MI 2 9 Grosse Ile MI 20150109 _ _SEHL Showcase 3019
6112 Dearborn Heights Crestwood MI 6 12 Monroe St Mary CC MI 20150110     6112
6182 Dearborn Heights Crestwood MI 8 6 New Boston Huron MI 20150114 _ _ 6182
4840 Dearborn Heights Crestwood MI 1 9 South Lyon MI 20150116 _ _ 4840
6904 Dearborn Heights Crestwood MI 1 3 Fenton MI 20150117 _ _ 6904
6135 Dearborn Heights Crestwood MI 1 8 Ann Arbor Huron MI 20150122 _ _ 6135
6196 Dearborn Heights Crestwood MI 2 7 New Boston Huron MI 20150131 _ _ 6196
6404 Dearborn Heights Crestwood MI 0 6 Lakeville/Goodrich/N Branch MI 20150207 _ _ 6404
6921 Dearborn Heights Crestwood MI 1 2 Notre Dame Prep MI 20150211 _ _ 6921
7891 Dearborn Heights Crestwood MI 1 6 Fenton MI 20150221 _ _ 7891
9097 Dearborn Heights Crestwood MI 1 9 Canton MI 20150227 _ _ 9097
9 Detroit Catholic Central MI 8 1 Port Huron Northern MI 20141120 _ MIHL North 9
279 Detroit Catholic Central MI 4 2 Brighton MI 20141122 _ _ 279
281 Detroit Catholic Central MI 4 2 Brother Rice MI 20141126 _ _MIHL League Game 281
138 Detroit Catholic Central MI 6 5 Trenton MI 20141203 _ _ 138
292 Detroit Catholic Central MI 5 1 Orchard Lake St Marys MI 20141205 _ _MIHL League Game 292
306 Detroit Catholic Central MI 9 5 Orchard Lake St Marys MI 20141206 _ _MIHL League Game 306
998 Detroit Catholic Central MI 4 3 Notre Dame WI 20141212     998
1423 Detroit Catholic Central MI 5 2 St. Andrews ON 20141213     1423
1422 Detroit Catholic Central MI 5 1 Port Huron Northern MI 20141220     1422
2802 Detroit Catholic Central MI 4 0 U of D Jesuit MI 20150109 _ _MIHL League Game 2802
4792 Detroit Catholic Central MI 1 1 Cranbrook MI 20150110 OT _MIHL North 4792
5001 Detroit Catholic Central MI 0 4 Culver Prep MM 20150116     5001
5002 Detroit Catholic Central MI 1 3 Culver Prep MM 20150117     5002
4895 Detroit Catholic Central MI 1 3 Brother Rice MI 20150121 _ _MIHL North 4895
4922 Detroit Catholic Central MI 6 0 Rochester United MI 20150123 _ _Non League 4922
4992 Detroit Catholic Central MI 4 3 Trenton MI 20150128 OT _MIHL Cross Division 4992
5773 Detroit Catholic Central MI 4 5 Cranbrook MI 20150130 _ _MIHL North 5773
5802 Detroit Catholic Central MI 5 0 Livonia Stevenson MI 20150131 _ _Non League @ Compuware 5802
6381 Detroit Catholic Central MI 1 2 Forest Hills Central MI 20150206 _ _ 6381
6830 Detroit Catholic Central MI 4 1 Grandville MI 20150207 _ _ 6830
7558 Detroit Catholic Central MI 8 4 Toledo Saint Francis OH 20150213     7558
7572 Detroit Catholic Central MI 4 0 Northville MI 20150214     7572
8207 Detroit Catholic Central MI 5 0 De La Salle MI 20150218 _ _MIHL Crossover 8207
8211 Detroit Catholic Central MI 7 1 Orchard Lake St Marys MI 20150221 _ _League Game 8211
8262 Detroit Catholic Central MI 4 1 Grosse Pointe North MI 20150228 _ _MIHL Cross Division 8262
8401 Detroit Catholic Central MI 3 0 Farmington Hills Harrison MI 20150304 _ _MHSAA Play-Offs 8401
8391 Detroit Catholic Central MI 8 0 Orchard Lake St Marys MI 20150307     8391
8404 Detroit Catholic Central MI 7 0 Troy MI 20150311 _ _MHSAA Divison 1 Quarter Finals 8404
8420 Detroit Catholic Central MI 4 3 U of D Jesuit MI 20150313 _ MHSAA Division 1 State Semi Final 8420
8422 Detroit Catholic Central MI 5 2 Grandville MI 20150314 _ _MHSAA Division 1 State Final 8422
3 Detroit Country Day MI 1 2 Ann Arbor Pioneer MI 20141119 _ _Metro 3
15 Detroit Country Day MI 2 3 Flint Powers MI 20141122 _ _ 15
139 Detroit Country Day MI 12 1 Southgate Anderson MI 20141203 _ _ 139
1566 Detroit Country Day MI 6 0 Dearborn MI 20141205     1566
1595 Detroit Country Day MI 4 1 Woodhaven MI 20141206     1595
1412 Detroit Country Day MI 1 3 Utica Eisenhower MI 20141213 _ _ 1412
1690 Detroit Country Day MI 7 0 Allen Park MI 20141219     1690
2782 Detroit Country Day MI 2 8 Wyandotte Roosevelt MI 20150107 _ _ 2782
2830 Detroit Country Day MI 1 2 New Baltimore Anchor Bay MI 20150110 _ _ 2830
6093 Detroit Country Day MI 5 2 Royal Oak MI 20150114 _ _ 6093
4839 Detroit Country Day MI 3 6 Romeo MI 20150116 _ _ 4839
6094 Detroit Country Day MI 2 5 Grosse Pointe South MI 20150117 _ _ 6094
6096 Detroit Country Day MI 6 0 Riverview Gabriel Richard MI 20150123 _ _ 6096
5768 Detroit Country Day MI 7 0 Saline MI 20150124 _ _ 5768
5786 Detroit Country Day MI 3 1 Divine Child MI 20150128 _ _ 5786
5790 Detroit Country Day MI 5 1 Riverview MI 20150130 _ _ 5790
5798 Detroit Country Day MI 4 2 Walled Lake Northern MI 20150131 _ _ 5798
6394 Detroit Country Day MI 1 9 U of D Jesuit MI 20150206 _ _ 6394
6398 Detroit Country Day MI 4 2 Wyandotte Roosevelt MI 20150207 _ _ 6398
7033 Detroit Country Day MI 6 3 De La Salle MI 20150212 _ _ 7033
7521 Detroit Country Day MI 1 2 Traverse City Central MI 20150214 _ _ 7521
7870 Detroit Country Day MI 3 2 Divine Child MI 20150220 _ _ 7870
7894 Detroit Country Day MI 4 0 Allen Park MI 20150221 _ _ 7894
8152 Detroit Country Day MI 0 2 Grosse Pointe South MI 20150224 _ _ 8152
8228 Detroit Country Day MI 3 1 Grosse Pointe Woods Liggett MI 20150227 _ _ 8228
8299 Detroit Country Day MI 14 0 Highland-Milford MI 20150303 _ _ 8299
8314 Detroit Country Day MI 3 2 Walled Lake Western MI 20150305 _ _ 8314
8337 Detroit Country Day MI 1 4 Cranbrook MI 20150307 _ _ 8337
1481 DeWitt/St Johns MI 7 5 Holt MI 20141119     1481
1503 DeWitt/St Johns MI 4 2 Swartz Creek/Clio MI 20141122     1503
1532 DeWitt/St Johns MI 0 8 Negaunee MI 20141128     1532
1545 DeWitt/St Johns MI 0 8 Grosse Pointe North MI 20141129     1545
1560 DeWitt/St Johns MI 0 2 Holt MI 20141203     1560
1578 DeWitt/St Johns MI 2 5 West Bloomfield MI 20141206     1578
1383 DeWitt/St Johns MI 3 2 Grand Ledge MI 20141209 _ _ 1383
1623 DeWitt/St Johns MI 1 2 Grand Rapids West Catholic MI 20141212     1623
1641 DeWitt/St Johns MI 4 6 Lakeville/Goodrich/N Branch MI 20141213     1641
1949 DeWitt/St Johns MI 0 8 Okemos MI 20141218 _ _ 1949
2632 DeWitt/St Johns MI 4 1 Eastside Stars MI 20150102     2632
4883 DeWitt/St Johns MI 0 6 Royal Oak Shrine Catholic MI 20150118 _ _ 4883
8285 DeWitt/St Johns MI 0 6 Okemos MI 20150130 _ _ 8285
5803 DeWitt/St Johns MI 1 8 Royal Oak Shrine Catholic MI 20150131 _ _ 5803
6392 DeWitt/St Johns MI 1 5 Lakeville/Goodrich/N Branch MI 20150206 _ _ 6392
6834 DeWitt/St Johns MI 0 1 Grand Ledge MI 20150207 OT _ 6834
7871 DeWitt/St Johns MI 1 4 Fenton MI 20150220 _ _ 7871
8301 DeWitt/St Johns MI 4 5 Grand Ledge MI 20150303 OT _ 8301
1491 Dexter MI 1 3 Gibraltar Carlson MI 20141121     1491
280 Dexter MI 1 3 Jenison MI 20141122 _ _ 280
1516 Dexter MI 5 3 Ann Arbor Skyline MI 20141126     1516
1563 Dexter MI 5 6 Saline MI 20141203     1563
1579 Dexter MI 1 3 Chelsea MI 20141206     1579
1663 Dexter MI 4 3 Temperance Bedford MI 20141213     1663
1672 Dexter MI 2 2 Ann Arbor Skyline MI 20141217     1672
1693 Dexter MI 3 2 Jenison MI 20141219     1693
1738 Dexter MI 4 3 Portage Northern MI 20141220     1738
2626 Dexter MI 4 7 Romeo MI 20150102     2626
2828 Dexter MI 2 3 Pinckney MI 20150110 _ _ 2828
4805 Dexter MI 5 2 Jackson Lumen Christi MI 20150114 _ _ 4805
4960 Dexter MI 2 5 Jackson Lumen Christi MI 20150124 _ _ 4960
6140 Dexter MI 4 6 Ann Arbor Huron MI 20150128 _ _ 6140
6281 Dexter MI 1 2 Dearborn MI 20150202 _ MPHSH Game 6281
6828 Dexter MI 5 6 East Grand Rapids MI 20150207 _ MPHSH Game 6828
6846 Dexter MI 2 1 Walled Lake Central MI 20150208 _ _ 6846
9094 Dexter MI 5 2 Canton MI 20150211 _ _ 9094
7851 Dexter MI 1 6 Berkley MI 20150218 _ _ 7851
8316 Dexter MI 4 7 Pinckney MI 20150305 _ Pre-regional Semi-Final 8316
1415 Divine Child MI 5 4 Plymouth MI 20141119 OT _ 1415
7 Divine Child MI 2 2 Ann Arbor Pioneer MI 20141120 OT Metro 7
111 Divine Child MI 11 2 Southgate Anderson MI 20141126 _ _ 111
1567 Divine Child MI 1 3 Grosse Pointe South MI 20141205     1567
1580 Divine Child MI 4 2 Wyandotte Roosevelt MI 20141206     1580
1597 Divine Child MI 6 1 Allen Park MI 20141210     1597
1621 Divine Child MI 7 4 Grand Rapids Kenowa Hills MI 20141212     1621
1645 Divine Child MI 0 3 Grand Rapids Catholic Central MI 20141213     1645
1673 Divine Child MI 6 2 Ann Arbor Gabriel Richard MI 20141217     1673
2806 Divine Child MI 3 3 Sault Ste Marie MI 20150109 _ _ 2806
3461 Divine Child MI 1 1 Alpena MI 20150110 OT _Lynn Auto Parts Showcase 3461
4817 Divine Child MI 2 4 Saline MI 20150115 _ _ 4817
6137 Divine Child MI 1 1 Grosse Pointe South MI 20150123 OT _metro 6137
5786 Divine Child MI 1 3 Detroit Country Day MI 20150128 _ _ 5786
6838 Divine Child MI 4 0 Dearborn MI 20150207 _ _ 6838
7563 Divine Child MI 0 2 Riverview MI 20150213     7563
7566 Divine Child MI 1 3 Toledo Saint Johns OH 20150214     7566
7870 Divine Child MI 2 3 Detroit Country Day MI 20150220 _ _ 7870
8251 Divine Child MI 1 3 U of D Jesuit MI 20150222 _ Catholic League Showcase 8251
278 East Grand Rapids MI 6 1 Lowell MI 20141121 _ Non League 278
125 East Grand Rapids MI 0 4 Grand Rapids Catholic Central MI 20141129 _ League Game 125
298 East Grand Rapids MI 1 3 East Kentwood MI 20141205 _ _ 298
312 East Grand Rapids MI 3 4 Lapeer MI 20141206 _ _ 312
1618 East Grand Rapids MI 3 6 Flint Powers MI 20141212     1618
1640 East Grand Rapids MI 1 5 Chelsea MI 20141213     1640
1953 East Grand Rapids MI 0 6 Muskegon Mona Shores MI 20141219 _ _ 1953
6177 East Grand Rapids MI 4 6 Grand Haven MI 20141220 _ Non Conference Game 6177
4778 East Grand Rapids MI 2 1 Forest Hills Northern MI 20150103 _ _ 4778
2819 East Grand Rapids MI 3 7 Rockford MI 20150110 _ League Game 2819
4825 East Grand Rapids MI 0 5 Grand Rapids Catholic Central MI 20150116 _ _ 4825
4853 East Grand Rapids MI 4 3 Big Rapids MI 20150117 _ _ 4853
4924 East Grand Rapids MI 1 6 Forest Hills Central MI 20150123 _ _ 4924
4989 East Grand Rapids MI 0 4 Muskegon Mona Shores MI 20150128 _ _League 4989
5791 East Grand Rapids MI 2 3 Rockford MI 20150130 _ Tier 1 League Game 5791
5805 East Grand Rapids MI 2 4 Grand Rapids Kenowa Hills MI 20150131 _ _ 5805
6211 East Grand Rapids MI 2 9 Reeths Puffer MI 20150204 _ Tier 1 League Game 6211
6384 East Grand Rapids MI 5 2 Waterford Unified MI 20150206 _ MPSHS Game 6384
6828 East Grand Rapids MI 6 5 Dexter MI 20150207 _ MPHSH Game 6828
8385 East Grand Rapids MI 2 4 Forest Hills Central MI 20150307 2OT   8385
96 East Kentwood MI 1 7 Holland West Ottawa MI 20141121 _ Non Conference 96
117 East Kentwood MI 2 5 Rockford MI 20141128 _ League Game-Tourny Game 117
126 East Kentwood MI 2 4 Grand Rapids Kenowa Hills MI 20141129 _ Thanksgiving Tourny Consolation Game 126
298 East Kentwood MI 3 1 East Grand Rapids MI 20141205 _ _ 298
160 East Kentwood MI 3 6 Flint Powers MI 20141206 _ _ 160
1401 East Kentwood MI 2 4 Reeths Puffer MI 20141210 _ _ 1401
1636 East Kentwood MI 3 2 Waterford Unified MI 20141212     1636
1649 East Kentwood MI 0 3 Hartland MI 20141213     1649
1698 East Kentwood MI 2 3 Grand Rapids Catholic Central MI 20141219     1698
1714 East Kentwood MI 0 7 Forest Hills Central MI 20141220     1714
1957 East Kentwood MI 4 3 Alpena MI 20141226 _ _ 1957
1966 East Kentwood MI 8 5 Swan Valley MI 20141227 _ _ 1966
2637 East Kentwood MI 3 5 Grand Rapids Christian MI 20150103     2637
  East Kentwood MI 0 2 Muskegon Mona Shores MI 20150110 _ Tournament Game-League Game 2821
3032 East Kentwood MI 7 4 Grand Haven MI 20150111 _ _ 3032
4816 East Kentwood MI 2 3 Reeths Puffer MI 20150115 _ _ 4816
6114 East Kentwood MI 1 2 Rochester Stoney Creek MI 20150118 OT _ 6114
4936 East Kentwood MI 0 4 Lake Orion MI 20150123 _ _ 4936
6212 East Kentwood MI 2 10 Forest Hills Central MI 20150204 _ Tier 1 League Game 6212
6379 East Kentwood MI 1 3 Grandville MI 20150206 _ _ 6379
6837 East Kentwood MI 4 1 Lowell MI 20150207 _ _ 6837
7502 East Kentwood MI 1 4 Muskegon Mona Shores MI 20150211 _ _league 7502
8386 East Kentwood MI 2 7 Grandville MI 20150307     8386
81 Eastside Stars MI 3 5 Grand Ledge MI 20141118 _ _League Game 81
4767 Eastside Stars MI 5 7 Lapeer MI 20141212 _ _ 4767
1745 Eastside Stars MI 3 5 Grand Ledge MI 20141223 _ _League 1745
2632 Eastside Stars MI 1 4 DeWitt/St Johns MI 20150102     2632
8281 Eastside Stars MI 4 11 Okemos MI 20150103 _ _ 8281
2818 Eastside Stars MI 1 8 Jackson Lumen Christi MI 20150110 _ _ 2818
5434 Eastside Stars MI 0 9 Kenston OH 20150116 _ Tournament Game 5434
6257 Eastside Stars MI 2 6 Hudson OH 20150117 _ _ 6257
5778 Eastside Stars MI 3 4 Gahanna OH 20150119 _ MLK Tourn. 5778
6400 Eastside Stars MI 1 9 Grand Rapids West Catholic MI 20150207 _ _ 6400
8230 Eastside Stars MI 2 3 Jackson Lumen Christi MI 20150227 OT _ 8230
8290 Eastside Stars MI 1 8 Okemos MI 20150228 _ _ 8290
92 Escanaba MI 7 1 Alpena MI 20141121 _ _ 92
99 Escanaba MI 7 0 Alpena MI 20141122 _ _ 99
35 Escanaba MI 4 2 Kingsford MI 20141125 _ _ 35
123 Escanaba MI 3 3 Sault Ste Marie MI 20141129 _ _ 123
134 Escanaba MI 4 1 Marquette MI 20141202 _ _ 134
7854 Escanaba MI 9 1 Negaunee MI 20141208 _ _ 7854
1642 Escanaba MI 3 7 Hancock MI 20141213     1642
1694 Escanaba MI 3 6 Houghton MI 20141219     1694
1960 Escanaba MI 9 3 Jeffers MI 20141226 _ _ 1960
1972 Escanaba MI 5 1 Jeffers MI 20141227 _ _ 1972
2624 Escanaba MI 6 2 Cheboygan MI 20150102     2624
2497 Escanaba MI 7 4 Pinckney MI 20150103 _ New Years Invite 2497
4821 Escanaba MI 4 2 Bay City Central MI 20150116 _ _ 4821
4864 Escanaba MI 4 2 Macomb Dakota MI 20150117 _ _ 4864
4888 Escanaba MI 0 2 Marquette MI 20150120 _ _ 4888
4920 Escanaba MI 3 4 Calumet MI 20150123 OT _ 4920
7856 Escanaba MI 5 2 Kingsford MI 20150127 _ _ 7856
6193 Escanaba MI 0 4 Houghton MI 20150130 _ _ 6193
6147 Escanaba MI 0 1 Sault Ste Marie MI 20150131 OT _ 6147
6371 Escanaba MI 3 5 Novi MI 20150205 _ MPSHS Game 6371
7857 Escanaba MI 3 5 Woodhaven MI 20150206 _ _ 7857
7858 Escanaba MI 6 3 Berkley MI 20150207 _ _ 7858
7859 Escanaba MI 5 6 Negaunee MI 20150212 _ _ 7859
8145 Escanaba MI 4 3 Calumet MI 20150220 OT _GLHC Game 8145
7893 Escanaba MI 2 4 Hancock MI 20150221 _ _ 7893
8395 Escanaba MI 7 3 Traverse City Central MI 20150310     8395
8430 Escanaba MI 2 3 Livonia Stevenson MI 20150313   D2 Semi 8430
4 Farmington MI 1 5 Flint Powers MI 20141119 _ _ 4
1498 Farmington MI 6 3 South Lyon MI 20141121     1498
1504 Farmington MI 3 6 Northville MI 20141122     1504
1518 Farmington MI 2 4 Farmington Hills Harrison MI 20141126     1518
136 Farmington MI 3 4 Canton MI 20141203 OT _ 136
1608 Farmington MI 5 5 Rochester Stoney Creek MI 20141210     1608
1371 Farmington MI 6 3 Lakeland MI 20141212 _ _ 1371
1942 Farmington MI 2 6 Rochester United MI 20141212 _ _ 1942
1724 Farmington MI 4 10 Howell MI 20141220     1724
2786 Farmington MI 0 8 Berkley MI 20150108 _ _ 2786
3054 Farmington MI 2 7 Clarkston MI 20150110 _ _ 3054
4803 Farmington MI 5 2 Grosse Ile MI 20150114 _ _ 4803
5782 Farmington MI 3 3 Lake Orion MI 20150117 _ _ 5782
5783 Farmington MI 6 2 Grand Blanc MI 20150120 _ _ 5783
5784 Farmington MI 3 2 Walled Lake Western MI 20150122 _ _ 5784
5787 Farmington MI 9 0 Auburn Hills Avondale MI 20150128 _ _ 5787
5800 Farmington MI 8 0 Marysville MI 20150131 _ _ 5800
6363 Farmington MI 4 3 Livonia Churchill MI 20150203 _ _ 6363
6366 Farmington MI 1 5 Chelsea MI 20150204 _ _ 6366
6826 Farmington MI 0 5 Rochester United MI 20150207 _ _ 6826
7799 Farmington MI 6 6 Lake Orion MI 20150211 _ _ 7799
7802 Farmington MI 5 4 Rochester Stoney Creek MI 20150214 OT _ 7802
7936 Farmington MI 2 6 Clarkston MI 20150218 _ _ 7936
7941 Farmington MI 2 5 Farmington Hills Harrison MI 20150221 _ _ 7941
8236 Farmington MI 1 4 Plymouth MI 20150225     8236
8295 Farmington MI 4 9 Berkley MI 20150228 _ _ 8295
1489 Farmington Hills Harrison MI 3 8 Novi MI 20141121     1489
1505 Farmington Hills Harrison MI 7 4 South Lyon MI 20141122     1505
1518 Farmington Hills Harrison MI 4 2 Farmington MI 20141126     1518
1558 Farmington Hills Harrison MI 8 3 Walled Lake Central MI 20141203     1558
1577 Farmington Hills Harrison MI 7 3 Clarkston MI 20141206     1577
1619 Farmington Hills Harrison MI 2 7 Houghton MI 20141212     1619
1643 Farmington Hills Harrison MI 6 3 Calumet MI 20141213     1643
4769 Farmington Hills Harrison MI 3 7 Marquette MI 20141214 _ _ 4769
1801 Farmington Hills Harrison MI 4 6 Berkley MI 20141218 _ _ 1801
1739 Farmington Hills Harrison MI 3 9 Rochester Stoney Creek MI 20141220     1739
2646 Farmington Hills Harrison MI 5 4 Livonia Franklin MI 20150103     2646
2781 Farmington Hills Harrison MI 9 1 Royal Oak MI 20150107 _ _ 2781
3020 Farmington Hills Harrison MI 3 6 Rochester United MI 20150110 _ _ 3020
4814 Farmington Hills Harrison MI 3 6 Lake Orion MI 20150115 _ _ 4814
4849 Farmington Hills Harrison MI 2 3 Berkley MI 20150117 _ _ 4849
4906 Farmington Hills Harrison MI 1 5 Rochester United MI 20150121 _ _ 4906
5758 Farmington Hills Harrison MI 3 5 Livonia Churchill MI 20150128 _ _ 5758
6202 Farmington Hills Harrison MI 0 8 Howell MI 20150203 _ _ 6202
7499 Farmington Hills Harrison MI 4 0 Davison MI 20150205 _ _ 7499
7500 Farmington Hills Harrison MI 7 3 Rochester Stoney Creek MI 20150207 _ _ 7500
7501 Farmington Hills Harrison MI 5 2 Walled Lake Western MI 20150209 _ _ 7501
7941 Farmington Hills Harrison MI 5 2 Farmington MI 20150221 _ _ 7941
8401 Farmington Hills Harrison MI 0 3 Detroit Catholic Central MI 20150304 _ _MHSAA Play-Offs 8401
1395 Fenton MI 2 5 Mid-Michigan Storm MI 20141122 _ _ 1395
1394 Fenton MI 6 3 Hudsonville MI 20141128 _ _ 1394
84 Fenton MI 2 6 Grand Ledge MI 20141129 _ _Tournament 84
137 Fenton MI 0 8 Davison MI 20141203 _ _ 137
1393 Fenton MI 5 6 Lakeville/Goodrich/N Branch MI 20141210 _ _ 1393
1392 Fenton MI 6 5 Flushing MI 20141213 _ _ 1392
1680 Fenton MI 3 4 Macomb L'Anse Creuse North MI 20141217     1680
1695 Fenton MI 2 6 Petoskey MI 20141219     1695
6902 Fenton MI 1 11 Negaunee MI 20141220 _ _ 6902
4783 Fenton MI 4 6 KBH Unified MI 20150107 _ _ 4783
4796 Fenton MI 2 2 Swartz Creek/Clio MI 20150110 _ _ 4796
6903 Fenton MI 8 2 Flushing MI 20150114 _ _ 6903
6904 Fenton MI 3 1 Dearborn Heights Crestwood MI 20150117 _ _ 6904
6905 Fenton MI 4 3 Grand Ledge MI 20150121 _ _ 6905
6907 Fenton MI 5 6 Mid-Michigan Storm MI 20150124 _ _ 6907
6908 Fenton MI 4 3 Lakeville/Goodrich/N Branch MI 20150128 OT _ 6908
6910 Fenton MI 7 1 Madison Heights Bishop Foley MI 20150131 _ _ 6910
6215 Fenton MI 3 8 Notre Dame Prep MI 20150204 _ _ 6215
6824 Fenton MI 0 9 Midland Dow MI 20150207 _ _ 6824
6918 Fenton MI 3 3 KBH Unified MI 20150211 OT _Flint Metro 6918
7549 Fenton MI 10 5 Swartz Creek/Clio MI 20150214 _ _flint metro 7549
7871 Fenton MI 4 1 DeWitt/St Johns MI 20150220 _ _ 7871
7891 Fenton MI 6 1 Dearborn Heights Crestwood MI 20150221 _ _ 7891
8169 Fenton MI 2 6 Pinckney MI 20150225 _ _ 8169
8231 Fenton MI 0 8 Grand Blanc MI 20150228 _ _ 8231
4 Flint Powers MI 5 1 Farmington MI 20141119 _ _ 4
15 Flint Powers MI 3 2 Detroit Country Day MI 20141122 _ _ 15
38 Flint Powers MI 4 3 Grand Blanc MI 20141126 _ _ 38
87 Flint Powers MI 5 1 Jackson Lumen Christi MI 20141203 _ _ 87
160 Flint Powers MI 6 3 East Kentwood MI 20141206 _ _ 160
1618 Flint Powers MI 6 3 East Grand Rapids MI 20141212     1618
1466 Flint Powers MI 2 5 Cranbrook MI 20141213   MIHL North 1466
1674 Flint Powers MI 4 0 Lapeer MI 20141217     1674
1710 Flint Powers MI 4 0 Ann Arbor Gabriel Richard MI 20141220     1710
1809 Flint Powers MI 8 0 Monroe St Mary CC MI 20141227 _ _ 1809
2491 Flint Powers MI 3 0 Chelsea MI 20150103 _ _ 2491
2670 Flint Powers MI 3 2 Midland Dow MI 20150107 _ _ 2670
2812 Flint Powers MI 0 2 U of D Jesuit MI 20150110 _ _ 2812
3463 Flint Powers MI 0 1 Bay City Central MI 20150114 _ _ 3463
4902 Flint Powers MI 5 3 Mt Pleasant MI 20150121 _ SVL game/ empty net goal 4902
4923 Flint Powers MI 2 4 Culver Varsity IN 20150123 _ _Non League vs. Culver Varsity A 4923
4956 Flint Powers MI 4 2 St Josephs IN 20150124 _ _ 4956
4986 Flint Powers MI 2 4 Davison MI 20150128 _ _ 4986
6214 Flint Powers MI 4 1 Saginaw Heritage MI 20150204 _ _ 6214
6840 Flint Powers MI 3 4 Sylvania Northview OH 20150207 _ _ 6840
7543 Flint Powers MI 3 4 Grosse Pointe Woods Liggett MI 20150212 _ _ 7543
7547 Flint Powers MI 4 1 Port Huron Northern MI 20150214 _ _ 7547
7849 Flint Powers MI 3 4 Howell MI 20150218 _ _ 7849
8153 Flint Powers MI 10 2 Midland MI 20150225 _ _ 8153
8221 Flint Powers MI 8 0 Marysville MI 20150227 _ _ 8221
8313 Flint Powers MI 10 0 Flushing MI 20150305 _ _ 8313
8339 Flint Powers MI 7 0 Big Rapids MI 20150307 _ _ 8339
8403 Flint Powers MI 3 2 Forest Hills Central MI 20150311 OT _ 8403
8421 Flint Powers MI 1 4 Houghton MI 20150313 _ _ 8421
1377 Flushing MI 0 5 Lapeer MI 20141119 _ _ 1377
1936 Flushing MI 0 8 Freeland/Nouvel/Valley MI 20141126 _ _ 1936
1397 Flushing MI 0 5 Bay Area Thunder MI 20141129 _ _ 1397
1389 Flushing MI 5 7 KBH Unified MI 20141203 _ _ 1389
1941 Flushing MI 0 8 Swan Valley MI 20141210 _ _ 1941
1392 Flushing MI 5 6 Fenton MI 20141213 _ _ 1392
4770 Flushing MI 4 5 Lakeville/Goodrich/N Branch MI 20141217     4770
6179 Flushing MI 4 9 Freeland/Nouvel/Valley MI 20150107 _ _ 6179
6903 Flushing MI 2 8 Fenton MI 20150114 _ _ 6903
4878 Flushing MI 1 8 Swartz Creek/Clio MI 20150117 _ _ 4878
8242 Flushing MI 0 8 Grand Blanc MI 20150206 _ _ 8242
6841 Flushing MI 1 9 Livonia Franklin MI 20150207 _ _GB Winter Classic Consolation Game 6841
8156 Flushing MI 1 9 Lakeville/Goodrich/N Branch MI 20150225 _ _ 8156
8313 Flushing MI 0 10 Flint Powers MI 20150305 _ _ 8313
94 Forest Hills Central MI 6 1 Forest Hills Northern MI 20141121 _ Non Conference 94
101 Forest Hills Central MI 0 2 Grand Rapids Catholic Central MI 20141122 _ League Game 101
124 Forest Hills Central MI 7 0 Reeths Puffer MI 20141129 _ League Game 124
1939 Forest Hills Central MI 9 1 Mattawan MI 20141205 _ _ 1939
1589 Forest Hills Central MI 8 0 Midland Dow MI 20141206     1589
1624 Forest Hills Central MI 5 4 Hartland MI 20141212 OT   1624
1658 Forest Hills Central MI 6 1 Rockford MI 20141213     1658
1714 Forest Hills Central MI 7 0 East Kentwood MI 20141220     1714
2642 Forest Hills Central MI 1 4 Grand Rapids Catholic Central MI 20150103     2642
2805 Forest Hills Central MI 3 2 Grand Rapids Christian MI 20150109 _ _ 2805
2826 Forest Hills Central MI 4 1 Forest Hills Northern MI 20150110 _ _ 2826
4854 Forest Hills Central MI 8 1 Muskegon Mona Shores MI 20150117 _ _ 4854
4924 Forest Hills Central MI 6 1 East Grand Rapids MI 20150123 _ _ 4924
5804 Forest Hills Central MI 7 2 Holland West Ottawa MI 20150131 _ _ 5804
6212 Forest Hills Central MI 10 2 East Kentwood MI 20150204 _ Tier 1 League Game 6212
6381 Forest Hills Central MI 2 1 Detroit Catholic Central MI 20150206 _ _ 6381
7555 Forest Hills Central MI 4 1 Plymouth MI 20150213     7555
7565 Forest Hills Central MI 4 3 Brighton MI 20150214     7565
8223 Forest Hills Central MI 2 3 Muskegon Mona Shores MI 20150227 _ _League 8223
8269 Forest Hills Central MI 2 4 U of D Jesuit MI 20150228 _ _ 8269
8385 Forest Hills Central MI 4 2 East Grand Rapids MI 20150307 2OT   8385
8403 Forest Hills Central MI 2 3 Flint Powers MI 20150311 OT _ 8403
94 Forest Hills Northern MI 1 6 Forest Hills Central MI 20141121 _ Non Conference 94
100 Forest Hills Northern MI 5 0 Grand Rapids Northview MI 20141122 _ Non Conference 100
282 Forest Hills Northern MI 6 3 Jenison MI 20141128 _ _ 282
1548 Forest Hills Northern MI 2 5 Muskegon Mona Shores MI 20141129     1548
327 Forest Hills Northern MI 1 3 Portage Central MI 20141205 _ __Non League 327
1637 Forest Hills Northern MI 1 4 Wyandotte Roosevelt MI 20141212     1637
1465 Forest Hills Northern MI 1 8 U of D Jesuit MI 20141213   NonCon 1465
1696 Forest Hills Northern MI 3 6 Grand Rapids Christian MI 20141219     1696
1718 Forest Hills Northern MI 6 3 Grand Rapids Christian MI 20141220     1718
2628 Forest Hills Northern MI 3 2 Jenison MI 20150102     2628
4778 Forest Hills Northern MI 1 2 East Grand Rapids MI 20150103 _ _ 4778
2826 Forest Hills Northern MI 1 4 Forest Hills Central MI 20150110 _ _ 2826
4802 Forest Hills Northern MI 1 3 Grand Rapids Kenowa Hills MI 20150114 _ _ 4802
4856 Forest Hills Northern MI 1 3 Grand Rapids Kenowa Hills MI 20150117 _ _ 4856
4925 Forest Hills Northern MI 8 1 Grand Haven MI 20150123 _ _ 4925
5747 Forest Hills Northern MI 1 3 Grand Rapids Catholic Central MI 20150124 _ _ 5747
6819 Forest Hills Northern MI 2 4 Midland Dow MI 20150130 _ _ 6819
6359 Forest Hills Northern MI 3 5 Midland MI 20150131 _ _ 6359
8326 Forest Hills Northern MI 4 3 Portage Northern MI 20150204 _ _Non-Con 8326
7556 Forest Hills Northern MI 5 0 Grosse Ile MI 20150213     7556
7523 Forest Hills Northern MI 0 2 Traverse City West MI 20150214 _ MIHL Showcase 7523
8232 Forest Hills Northern MI 4 2 Grand Haven MI 20150228 _ _OK TIER 2 CONFERENCE GAME 8232
1490 Fraser MI 3 4 Utica MI 20141121     1490
1506 Fraser MI 0 4 West Bloomfield MI 20141122     1506
1528 Fraser MI 7 4 Freeland/Nouvel/Valley MI 20141128     1528
1400 Fraser MI 0 6 Cadillac MI 20141129 _ _ 1400
1568 Fraser MI 1 1 Royal Oak Shrine Catholic MI 20141205     1568
1581 Fraser MI 3 8 Birmingham MI 20141206     1581
2662 Fraser MI 3 3 Dearborn Heights Crestwood MI 20141211 OT _ 2662
1644 Fraser MI 1 9 Troy MI 20141213     1644
1697 Fraser MI 3 4 Harrison Twp L'Anse Creuse MI 20141219     1697
2630 Fraser MI 4 5 Macomb L'Anse Creuse North MI 20150102     2630
2645 Fraser MI 3 4 Harrison Twp L'Anse Creuse MI 20150103     2645
2809 Fraser MI 2 3 St Clair Shores MI 20150110 OT _ 2809
3021 Fraser MI 1 3 Marysville MI 20150110 _ _ 3021
4822 Fraser MI 2 2 Utica MI 20150116 OT _ 4822
4877 Fraser MI 1 5 St Clair Shores MI 20150117 _ _ 4877
4898 Fraser MI 4 2 Auburn Hills Avondale MI 20150121 _ _ 4898
4915 Fraser MI 6 5 Macomb L'Anse Creuse North MI 20150122 _ _ 4915
4957 Fraser MI 5 1 Warren Mott MI 20150124 _ _ 4957
5797 Fraser MI 5 5 West Bloomfield MI 20150131 OT _ 5797
6408 Fraser MI 6 3 Madison Heights Bishop Foley MI 20150207 _ _ 6408
7513 Fraser MI 10 2 Warren Mott MI 20150213 _ _ 7513
7522 Fraser MI 1 3 Ann Arbor Huron MI 20150214 _ _ 7522
7885 Fraser MI 1 5 Port Huron MI 20150220 _ _ 7885
8258 Fraser MI 5 8 Notre Dame Prep MI 20150227 _ _ 8258
1936 Freeland/Nouvel/Valley MI 8 0 Flushing MI 20141126 _ _ 1936
1528 Freeland/Nouvel/Valley MI 4 7 Fraser MI 20141128     1528
1540 Freeland/Nouvel/Valley MI 2 4 Dearborn MI 20141129     1540
300 Freeland/Nouvel/Valley MI 4 6 Jenison MI 20141205 _ _ 300
339 Freeland/Nouvel/Valley MI 1 4 Mt Pleasant MI 20141210 _ _ 339
6175 Freeland/Nouvel/Valley MI 3 6 Swan Valley MI 20141213 _ Mid Michigan Hockey Conference 6175
1947 Freeland/Nouvel/Valley MI 3 4 Mid-Michigan Storm MI 20141217 OT Mid- Michigan Hockey Conference- Shootout 1947
1954 Freeland/Nouvel/Valley MI 4 5 Negaunee MI 20141219 OT Petoskey Invitational- Shootout 1954
1715 Freeland/Nouvel/Valley MI 6 3 Petoskey MI 20141220     1715
4780 Freeland/Nouvel/Valley MI 2 4 Lakeville/Goodrich/N Branch MI 20150103 _ _ 4780
6179 Freeland/Nouvel/Valley MI 9 4 Flushing MI 20150107 _ _ 6179
4786 Freeland/Nouvel/Valley MI 1 9 Big Rapids MI 20150109 _ _ 4786
6183 Freeland/Nouvel/Valley MI 5 9 Port Huron MI 20150116 _ _ 6183
6186 Freeland/Nouvel/Valley MI 1 5 Mid-Michigan Storm MI 20150121 _ Mid Michigan Hockey Conference 6186
4964 Freeland/Nouvel/Valley MI 4 4 Mt Pleasant MI 20150124 _ _ 4964
6189 Freeland/Nouvel/Valley MI 0 7 Bay Area Thunder MI 20150128 _ Mid- Michigan Hockey Conference 6189
6199 Freeland/Nouvel/Valley MI 4 2 Lapeer MI 20150131 _ _ 6199
6919 Freeland/Nouvel/Valley MI 2 6 Lakeville/Goodrich/N Branch MI 20150211 _ _ 6919
8148 Freeland/Nouvel/Valley MI 0 10 Bay City Central MI 20150223 _ _ 8148
26 Gaylord MI 5 7 Jeffers MI 20141120 _ _ 26
1513 Gaylord MI 4 5 Macomb L'Anse Creuse North MI 20141122     1513
147 Gaylord MI 0 8 Traverse City West MI 20141203 _ _ 147
297 Gaylord MI 2 7 Grand Rapids Kenowa Hills MI 20141205 _ _ 297
311 Gaylord MI 3 4 Grand Rapids Christian MI 20141206 _ _ 311
1607 Gaylord MI 5 2 Petoskey MI 20141210     1607
1617 Gaylord MI 2 3 Chelsea MI 20141212     1617
1435 Gaylord MI 1 4 Grosse Ile MI 20141213 _ DIII Gaylord Showcase 1435
4771 Gaylord MI 2 5 Cadillac MI 20141219   Big North Conference 4771
4779 Gaylord MI 5 3 Alpena MI 20150103   Big North Conference 4779
4782 Gaylord MI 7 4 Petoskey MI 20150107   Big North Conference 4782
4823 Gaylord MI 10 2 Lakeville/Goodrich/N Branch MI 20150116     4823
4855 Gaylord MI 8 2 Lakeville/Goodrich/N Branch MI 20150117     4855
4911 Gaylord MI 2 4 Traverse City West MI 20150121 _ BNC 4911
6355 Gaylord MI 3 6 Cheboygan MI 20150124 _ _ 6355
6817 Gaylord MI 4 6 Cadillac MI 20150128   Big North Conference 6817
6818 Gaylord MI 6 2 Traverse City Reps MI 20150130     6818
6820 Gaylord MI 9 2 Mid-Michigan Storm MI 20150206     6820
6822 Gaylord MI 2 0 Mid-Michigan Storm MI 20150207     6822
8143 Gaylord MI 2 4 Alpena MI 20150218 _ _BNC 8143
7866 Gaylord MI 1 9 Traverse City Central MI 20150219 _ BNC 7866
8154 Gaylord MI 0 4 Traverse City Central MI 20150225 _ BNC 8154
8392 Gaylord MI 4 8 Sault Ste Marie MI 20150307     8392
1491 Gibraltar Carlson MI 3 1 Dexter MI 20141121     1491
20 Gibraltar Carlson MI 2 3 Walled Lake Northern MI 20141122 _ _ 20
1538 Gibraltar Carlson MI 2 4 Woodhaven MI 20141128     1538
1541 Gibraltar Carlson MI 3 3 Allen Park MI 20141129     1541
1557 Gibraltar Carlson MI 6 0 Dearborn MI 20141203     1557
4763 Gibraltar Carlson MI 8 1 Monroe MI 20141205 _ _ 4763
1613 Gibraltar Carlson MI 5 2 Allen Park MI 20141212     1613
4768 Gibraltar Carlson MI 9 1 Dearborn Heights Crestwood MI 20141213 _ _ 4768
1436 Gibraltar Carlson MI 8 0 Grosse Ile MI 20141216 _ SEHL League Game 1436
1675 Gibraltar Carlson MI 4 6 Riverview MI 20141217     1675
2500 Gibraltar Carlson MI 0 7 Trenton MI 20150103 _ _ 2500
2655 Gibraltar Carlson MI 5 4 Grosse Ile MI 20150106 _ _SEHL League Game 2655
4787 Gibraltar Carlson MI 9 4 Southgate Anderson MI 20150109 _ _ 4787
4799 Gibraltar Carlson MI 9 0 Airport MI 20150113 _ _ 4799
4824 Gibraltar Carlson MI 6 1 Monroe MI 20150116 _ _ 4824
4916 Gibraltar Carlson MI 9 1 Airport MI 20150122 _ _ 4916
6188 Gibraltar Carlson MI 10 1 New Boston Huron MI 20150128 _ _ 6188
8244 Gibraltar Carlson MI 9 1 Riverview Gabriel Richard MI 20150210 _ _ 8244
8246 Gibraltar Carlson MI 3 2 Riverview Gabriel Richard MI 20150214 _ _ 8246
8384 Gibraltar Carlson MI 0 4 Riverview MI 20150306     8384
1 Grand Blanc MI 5 5 Pinckney MI 20141117 _ KLAA League Game 1
1487 Grand Blanc MI 10 5 Waterford Unified MI 20141119     1487
38 Grand Blanc MI 3 4 Flint Powers MI 20141126 _ _ 38
143 Grand Blanc MI 1 4 Hartland MI 20141203 _ _KLAA League Game 143
154 Grand Blanc MI 2 3 Canton MI 20141205 _ _ 154
1582 Grand Blanc MI 6 2 Highland-Milford MI 20141206     1582
1372 Grand Blanc MI 1 4 Lakeland MI 20141208 _ _ 1372
1796 Grand Blanc MI 1 3 Walled Lake Northern MI 20141211 _ _ 1796
1620 Grand Blanc MI 2 5 Grosse Pointe Woods Liggett MI 20141212     1620
1677 Grand Blanc MI 2 10 Howell MI 20141217     1677
1716 Grand Blanc MI 3 7 Bay Area Thunder MI 20141220     1716
2765 Grand Blanc MI 5 4 Port Huron MI 20150106     2765
3024 Grand Blanc MI 2 9 Romeo MI 20150110 _ _ 3024
4810 Grand Blanc MI 0 1 Walled Lake Central MI 20150114 _ _ 4810
5783 Grand Blanc MI 2 6 Farmington MI 20150120 _ _ 5783
4926 Grand Blanc MI 3 8 Hartland MI 20150123 _ KLAA Game 4926
8239 Grand Blanc MI 3 10 Walled Lake Western MI 20150126 _ _ 8239
5785 Grand Blanc MI 6 5 Pinckney MI 20150128 _ _ 5785
8242 Grand Blanc MI 8 0 Flushing MI 20150206 _ _ 8242
8243 Grand Blanc MI 6 1 Bay Area Thunder MI 20150207 _ _ 8243
8247 Grand Blanc MI 0 5 Lake Orion MI 20150214 _ _ 8247
8164 Grand Blanc MI 3 4 Davison MI 20150218 OT _ 8164
7888 Grand Blanc MI 7 6 Waterford Unified MI 20150221 _ _ 7888
8257 Grand Blanc MI 10 5 Swartz Creek/Clio MI 20150225 _ _ 8257
8231 Grand Blanc MI 8 0 Fenton MI 20150228 _ _ 8231
8380 Grand Blanc MI 3 4 Bay City Central MI 20150307 _ _ 8380
24 Grand Haven MI 0 8 Grand Rapids Kenowa Hills MI 20141119 _ OK Tier 2 Conference Game 24
39 Grand Haven MI 3 3 Lowell MI 20141126 _ _Non Conference - OT Tie Game 39
41 Grand Haven MI 8 1 Wayland Union MI 20141128 _ _Grand Rapids Unity Knights 41
140 Grand Haven MI 2 6 Grand Rapids Kenowa Hills MI 20141203 _ League Game 140
331 Grand Haven MI 3 4 Mt Pleasant MI 20141206 _ _ 331
1609 Grand Haven MI 2 6 Rockford MI 20141210     1609
1409 Grand Haven MI 0 8 Grandville MI 20141212 _ _ 1409
6176 Grand Haven MI 6 5 Kalamazoo Blades MI 20141214 _ Non Conference Game 6176
1676 Grand Haven MI 4 1 Grand Rapids West Catholic MI 20141217     1676
6177 Grand Haven MI 6 4 East Grand Rapids MI 20141220 _ Non Conference Game 6177
6178 Grand Haven MI 3 4 Jenison MI 20150107 _ OK Conference Game 6178
2822 Grand Haven MI 3 7 Portage Central MI 20150110 _ Conrad Tournament 2822
3032 Grand Haven MI 4 7 East Kentwood MI 20150111 _ _ 3032
6185 Grand Haven MI 1 8 Grand Rapids Christian MI 20150121 _ OK Conference Game 6185
6184 Grand Haven MI 2 7 Grandville MI 20150121 _ OK Conference Game 6184
4925 Grand Haven MI 1 8 Forest Hills Northern MI 20150123 _ _ 4925
6203 Grand Haven MI 3 4 Holland West Ottawa MI 20150204 _ Non Conference Game 6203
6393 Grand Haven MI 6 4 Port Huron MI 20150206 _ _MPHSH 6393
6402 Grand Haven MI 3 0 Marysville MI 20150207 _ _MPHSH 6402
6915 Grand Haven MI 2 2 Grand Rapids Christian MI 20150211 OT OK Conference T2 Game 6915
7508 Grand Haven MI 1 4 Midland Dow MI 20150213 _ NON CONFERENCE GAME 7508
7889 Grand Haven MI 7 6 Jenison MI 20150221 OT _OK TIER 2 CONFERENCE GAME 7889
8232 Grand Haven MI 2 4 Forest Hills Northern MI 20150228 _ _OK TIER 2 CONFERENCE GAME 8232
81 Grand Ledge MI 5 3 Eastside Stars MI 20141118 _ _League Game 81
30 Grand Ledge MI 0 7 Davison MI 20141122 _ _ 30
82 Grand Ledge MI 8 7 KBH Unified MI 20141128 OT _Tournament 82
84 Grand Ledge MI 6 2 Fenton MI 20141129 _ _Tournament 84
1385 Grand Ledge MI 4 5 Capital Area Patriots MI 20141204 _ _ 1385
1382 Grand Ledge MI 0 8 Portage Northern MI 20141206 _ _ 1382
1383 Grand Ledge MI 2 3 DeWitt/St Johns MI 20141209 _ _ 1383
1381 Grand Ledge MI 1 8 Jackson MI 20141212 _ _ 1381
1384 Grand Ledge MI 1 7 Grand Rapids West Catholic MI 20141213 _ _ 1384
4772 Grand Ledge MI 3 6 Airport MI 20141220 _ _ 4772
1745 Grand Ledge MI 5 3 Eastside Stars MI 20141223 _ _League 1745
2789 Grand Ledge MI 9 1 Holt MI 20150108 _ _League 2789
2829 Grand Ledge MI 1 6 Jackson MI 20150110 _ _ 2829
4815 Grand Ledge MI 2 5 Capital Area Patriots MI 20150115 _ _ 4815
6905 Grand Ledge MI 3 4 Fenton MI 20150121 _ _ 6905
8283 Grand Ledge MI 2 10 Okemos MI 20150122 _ _ 8283
5771 Grand Ledge MI 0 8 Jackson Lumen Christi MI 20150130 _ _ 5771
6152 Grand Ledge MI 1 9 Pinckney MI 20150202 _ MPHS 6152
6834 Grand Ledge MI 1 0 DeWitt/St Johns MI 20150207 OT _ 6834
8163 Grand Ledge MI 5 1 Holt MI 20150217 _ League 8163
8288 Grand Ledge MI 2 10 Okemos MI 20150220 _ _ 8288
7898 Grand Ledge MI 2 5 Jackson Lumen Christi MI 20150221 _ _ 7898
8155 Grand Ledge MI 1 4 Holland West Ottawa MI 20150225 _ Non League 8155
8301 Grand Ledge MI 5 4 DeWitt/St Johns MI 20150303 OT _ 8301
8319 Grand Ledge MI 7 5 Capital Area Patriots MI 20150305 _ _ 8319
8341 Grand Ledge MI 2 3 Jackson MI 20150307 _ _ 8341
95 Grand Rapids Catholic Central MI 4 2 Grandville MI 20141121 _ Non League Game 95
101 Grand Rapids Catholic Central MI 2 0 Forest Hills Central MI 20141122 _ League Game 101
1519 Grand Rapids Catholic Central MI 7 1 Grand Rapids Christian MI 20141126     1519
125 Grand Rapids Catholic Central MI 4 0 East Grand Rapids MI 20141129 _ League Game 125
295 Grand Rapids Catholic Central MI 5 2 Rockford MI 20141205 _ League Game - Empty Net goal 295
310 Grand Rapids Catholic Central MI 4 2 Saginaw Heritage MI 20141206 _ OK-Conference vs Saginaw Valley Challenge 310
1461 Grand Rapids Catholic Central MI 0 4 Cranbrook MI 20141212   MIHL North 1461
1645 Grand Rapids Catholic Central MI 3 0 Divine Child MI 20141213     1645
1946 Grand Rapids Catholic Central MI 4 3 Muskegon Mona Shores MI 20141217 OT _ 1946
1698 Grand Rapids Catholic Central MI 3 2 East Kentwood MI 20141219     1698
1737 Grand Rapids Catholic Central MI 4 2 Portage Central MI 20141220     1737
2642 Grand Rapids Catholic Central MI 4 1 Forest Hills Central MI 20150103     2642
2783 Grand Rapids Catholic Central MI 5 3 Reeths Puffer MI 20150107 _ Tier 1 League Game 2783
2823 Grand Rapids Catholic Central MI 3 6 Lake Orion MI 20150110 _ _ 2823
4825 Grand Rapids Catholic Central MI 5 0 East Grand Rapids MI 20150116 _ _ 4825
4927 Grand Rapids Catholic Central MI 5 3 Muskegon Mona Shores MI 20150123 _ _ 4927
5747 Grand Rapids Catholic Central MI 3 1 Forest Hills Northern MI 20150124 _ _ 5747
5756 Grand Rapids Catholic Central MI 4 1 Rockford MI 20150128 _ _League 5756
6170 Grand Rapids Catholic Central MI 2 2 Toledo Saint Johns OH 20150130 _ _ 6170
6173 Grand Rapids Catholic Central MI 3 5 Toledo Saint Johns OH 20150131 _ _ 6173
7553 Grand Rapids Catholic Central MI 1 0 Brighton MI 20150213     7553
7571 Grand Rapids Catholic Central MI 4 5 Wyandotte Roosevelt MI 20150214     7571
1482 Grand Rapids Central MI 0 8 Grand Rapids West Catholic MI 20141119     1482
1492 Grand Rapids Central MI 3 8 Airport MI 20141121     1492
1507 Grand Rapids Central MI 1 10 Holland West Ottawa MI 20141122     1507
1531 Grand Rapids Central MI 0 8 Kalamazoo United MI 20141128     1531
1542 Grand Rapids Central MI 2 10 Monroe MI 20141129     1542
1559 Grand Rapids Central MI 0 8 Grand Rapids Northview MI 20141203     1559
1583 Grand Rapids Central MI 3 10 Kalamazoo United MI 20141206     1583
1600 Grand Rapids Central MI 0 8 Holland West Ottawa MI 20141210     1600
1646 Grand Rapids Central MI 2 7 Capital Area Patriots MI 20141213     1646
2355 Grand Rapids Central MI 1 9 Hudsonville MI 20141217 _ _ 2355
1717 Grand Rapids Central MI 1 9 KBH Unified MI 20141220     1717
4863 Grand Rapids Central MI 4 11 KBH Unified MI 20150117 _ _ 4863
4937 Grand Rapids Central MI 1 9 Lakeville/Goodrich/N Branch MI 20150123 _ _ 4937
4961 Grand Rapids Central MI 1 9 Lakeville/Goodrich/N Branch MI 20150124 _ _ 4961
5753 Grand Rapids Central MI 1 8 Grand Rapids Northview MI 20150128 _ _ 5753
6213 Grand Rapids Central MI 1 6 Grand Rapids West Catholic MI 20150204 _ _ 6213
8249 Grand Rapids Central MI 3 9 Hudsonville MI 20150220 _ _ 8249
104 Grand Rapids Christian MI 2 3 Rockford MI 20141122 _ Non Conference 104
1519 Grand Rapids Christian MI 1 7 Grand Rapids Catholic Central MI 20141126     1519
1408 Grand Rapids Christian MI 1 7 Grandville MI 20141128 _ _ 1408
1543 Grand Rapids Christian MI 8 0 St Clair Shores MI 20141129     1543
296 Grand Rapids Christian MI 2 3 Reeths Puffer MI 20141205 _ _ 296
311 Grand Rapids Christian MI 4 3 Gaylord MI 20141206 _ _ 311
1696 Grand Rapids Christian MI 6 3 Forest Hills Northern MI 20141219     1696
1718 Grand Rapids Christian MI 3 6 Forest Hills Northern MI 20141220     1718
1963 Grand Rapids Christian MI 2 4 Portage Northern MI 20141227 _ _ 1963
2637 Grand Rapids Christian MI 5 3 East Kentwood MI 20150103     2637
2805 Grand Rapids Christian MI 2 3 Forest Hills Central MI 20150109 _ _ 2805
6185 Grand Rapids Christian MI 8 1 Grand Haven MI 20150121 _ OK Conference Game 6185
5748 Grand Rapids Christian MI 2 4 Grand Rapids Kenowa Hills MI 20150128 _ _ 5748
6390 Grand Rapids Christian MI 8 5 Jenison MI 20150206 _ _ 6390
6915 Grand Rapids Christian MI 2 2 Grand Haven MI 20150211 OT OK Conference T2 Game 6915
7512 Grand Rapids Christian MI 0 4 Traverse City West MI 20150213 _ MIHL Showcase 7512
7564 Grand Rapids Christian MI 0 3 Calumet MI 20150214     7564
7886 Grand Rapids Christian MI 4 5 Muskegon Mona Shores MI 20150220 _ _ 7886
24 Grand Rapids Kenowa Hills MI 8 0 Grand Haven MI 20141119 _ OK Tier 2 Conference Game 24
44 Grand Rapids Kenowa Hills MI 4 5 Berkley MI 20141129 _ _ 44
126 Grand Rapids Kenowa Hills MI 4 2 East Kentwood MI 20141129 _ Thanksgiving Tourny Consolation Game 126
140 Grand Rapids Kenowa Hills MI 6 2 Grand Haven MI 20141203 _ League Game 140
297 Grand Rapids Kenowa Hills MI 7 2 Gaylord MI 20141205 _ _ 297
1621 Grand Rapids Kenowa Hills MI 4 7 Divine Child MI 20141212     1621
1647 Grand Rapids Kenowa Hills MI 6 7 Big Rapids MI 20141213     1647
1699 Grand Rapids Kenowa Hills MI 2 2 Holland West Ottawa MI 20141219     1699
1958 Grand Rapids Kenowa Hills MI 3 1 Grandville MI 20141226 _ Tier II League Game 1958
1967 Grand Rapids Kenowa Hills MI 4 0 Grand Rapids West Catholic MI 20141227 _ _ 1967
2640 Grand Rapids Kenowa Hills MI 7 2 Jenison MI 20150103     2640
2820 Grand Rapids Kenowa Hills MI 3 3 Grandville MI 20150110 OT League Game 2820
4802 Grand Rapids Kenowa Hills MI 3 1 Forest Hills Northern MI 20150114 _ _ 4802
4856 Grand Rapids Kenowa Hills MI 3 1 Forest Hills Northern MI 20150117 _ _ 4856
4899 Grand Rapids Kenowa Hills MI 4 3 Jenison MI 20150121 _ _ 4899
4928 Grand Rapids Kenowa Hills MI 2 1 Portage Central MI 20150123 OT _ 4928
5748 Grand Rapids Kenowa Hills MI 4 2 Grand Rapids Christian MI 20150128 _ _ 5748
5805 Grand Rapids Kenowa Hills MI 4 2 East Grand Rapids MI 20150131 _ _ 5805
6385 Grand Rapids Kenowa Hills MI 6 3 Canton MI 20150206 _ MPSHS Game 6385
6829 Grand Rapids Kenowa Hills MI 4 2 Alpena MI 20150207 _ MPHSH Game 6829
7850 Grand Rapids Kenowa Hills MI 2 4 Muskegon Mona Shores MI 20150218 _ _ 7850
8263 Grand Rapids Kenowa Hills MI 7 2 Grand Rapids West Catholic MI 20150228 _ _ 8263
100 Grand Rapids Northview MI 0 5 Forest Hills Northern MI 20141122 _ Non Conference 100
112 Grand Rapids Northview MI 2 4 Grand Rapids West Catholic MI 20141126 _ League Game 112
141 Grand Rapids Northview MI 8 0 Wayland Union MI 20141203 _ League Game 141
1559 Grand Rapids Northview MI 8 0 Grand Rapids Central MI 20141203     1559
301 Grand Rapids Northview MI 2 6 Holland West Ottawa MI 20141205 _ _ 301
1629 Grand Rapids Northview MI 1 3 Lowell MI 20141212     1629
1944 Grand Rapids Northview MI 0 8 Okemos MI 20141213 _ _ 1944
2774 Grand Rapids Northview MI 5 2 Hudsonville MI 20150103 _ League Game 2774
8237 Grand Rapids Northview MI 2 10 Riverview Gabriel Richard MI 20150109 _ _ 8237
3027 Grand Rapids Northview MI 1 6 Dearborn MI 20150110 _ _ 3027
4826 Grand Rapids Northview MI 4 1 Jenison MI 20150116 _ _ 4826
4857 Grand Rapids Northview MI 2 0 Kalamazoo Eagles MI 20150117 _ _ 4857
5753 Grand Rapids Northview MI 8 1 Grand Rapids Central MI 20150128 _ _ 5753
6201 Grand Rapids Northview MI 6 4 Hudsonville MI 20150131 _ _ 6201
6843 Grand Rapids Northview MI 0 2 Grand Rapids West Catholic MI 20150208 _ Tier III League Game 6843
7801 Grand Rapids Northview MI 0 6 Monroe St Mary CC MI 20150214 _ _ 7801
1482 Grand Rapids West Catholic MI 8 0 Grand Rapids Central MI 20141119     1482
1494 Grand Rapids West Catholic MI 6 5 Mattawan MI 20141121     1494
112 Grand Rapids West Catholic MI 4 2 Grand Rapids Northview MI 20141126 _ League Game 112
1588 Grand Rapids West Catholic MI 1 4 Lowell MI 20141206     1588
1623 Grand Rapids West Catholic MI 2 1 DeWitt/St Johns MI 20141212     1623
1384 Grand Rapids West Catholic MI 7 1 Grand Ledge MI 20141213 _ _ 1384
1676 Grand Rapids West Catholic MI 1 4 Grand Haven MI 20141217     1676
1719 Grand Rapids West Catholic MI 1 2 Hudsonville MI 20141220     1719
1967 Grand Rapids West Catholic MI 0 4 Grand Rapids Kenowa Hills MI 20141227 _ _ 1967
2639 Grand Rapids West Catholic MI 4 3 Kalamazoo Blades MI 20150103     2639
5743 Grand Rapids West Catholic MI 0 3 Holland West Ottawa MI 20150107 _ _ 5743
2824 Grand Rapids West Catholic MI 7 2 Hudsonville MI 20150110 _ _ 2824
4800 Grand Rapids West Catholic MI 1 5 Big Rapids MI 20150114 _ _ 4800
4940 Grand Rapids West Catholic MI 2 3 Monroe St Mary CC MI 20150123 _ _ 4940
5746 Grand Rapids West Catholic MI 4 3 Big Rapids MI 20150124 OT _ 5746
6115 Grand Rapids West Catholic MI 2 4 Lowell MI 20150130 _ _ 6115
6213 Grand Rapids West Catholic MI 6 1 Grand Rapids Central MI 20150204 _ _ 6213
6400 Grand Rapids West Catholic MI 9 1 Eastside Stars MI 20150207 _ _ 6400
6843 Grand Rapids West Catholic MI 2 0 Grand Rapids Northview MI 20150208 _ Tier III League Game 6843
7516 Grand Rapids West Catholic MI 2 5 Monroe St Mary CC MI 20150213 _ _ 7516
7520 Grand Rapids West Catholic MI 6 4 Wayland Union MI 20150214 _ _ 7520
7853 Grand Rapids West Catholic MI 3 4 Holland West Ottawa MI 20150218 _ _ 7853
8224 Grand Rapids West Catholic MI 0 3 Manistee MI 20150227 _ _ 8224
8263 Grand Rapids West Catholic MI 2 7 Grand Rapids Kenowa Hills MI 20150228 _ _ 8263
95 Grandville MI 2 4 Grand Rapids Catholic Central MI 20141121 _ Non League Game 95
321 Grandville MI 4 2 Portage Central MI 20141122 _ _Non League 321
1408 Grandville MI 7 1 Grand Rapids Christian MI 20141128 _ _ 1408
127 Grandville MI 10 1 Southgate Anderson MI 20141129 _ _ 127
299 Grandville MI 6 2 Saginaw Heritage MI 20141205 _ _ 299
1409 Grandville MI 8 0 Grand Haven MI 20141212 _ _ 1409
1410 Grandville MI 7 2 Jenison MI 20141213 _ _ 1410
1700 Grandville MI 9 3 Ann Arbor Gabriel Richard MI 20141219     1700
1720 Grandville MI 4 1 Canton MI 20141220     1720
1958 Grandville MI 1 3 Grand Rapids Kenowa Hills MI 20141226 _ Tier II League Game 1958
2610 Grandville MI 6 4 Traverse City Central MI 20150102 _ _ 2610
2634 Grandville MI 8 1 Traverse City Reps MI 20150103     2634
2820 Grandville MI 3 3 Grand Rapids Kenowa Hills MI 20150110 OT League Game 2820
4838 Grandville MI 2 2 Rockford MI 20150116 OT _ 4838
6184 Grandville MI 7 2 Grand Haven MI 20150121 _ OK Conference Game 6184
4939 Grandville MI 7 2 Midland MI 20150123 _ _Grandville Showcase 4939
4950 Grandville MI 4 2 Bay City Central MI 20150124 _ _ 4950
6379 Grandville MI 3 1 East Kentwood MI 20150206 _ _ 6379
6830 Grandville MI 1 4 Detroit Catholic Central MI 20150207 _ _ 6830
7510 Grandville MI 5 4 Calumet MI 20150213 _ _shootout no overtime 7510
7570 Grandville MI 5 4 De La Salle MI 20150214     7570
8386 Grandville MI 7 2 East Kentwood MI 20150307     8386
8423 Grandville MI 4 0 Traverse City West MI 20150311   D1 Quarterfinal 8423
8429 Grandville MI 3 2 Bay City Central MI 20150313   D1 Semi 8429
8422 Grandville MI 2 5 Detroit Catholic Central MI 20150314 _ _MHSAA Division 1 State Final 8422
25 Grosse Ile MI 10 2 New Boston Huron MI 20141120 _ _Huron League 25
88 Grosse Ile MI 11 3 New Boston Huron MI 20141203 _ _ Huron League Game 88
332 Grosse Ile MI 0 4 Riverview MI 20141206 _ _Huron League 332
1433 Grosse Ile MI 5 5 Chelsea MI 20141210 _ non league 1433
1434 Grosse Ile MI 2 2 Jeffers MI 20141212 _ DIII Gaylord Showcase 1434
1435 Grosse Ile MI 4 1 Gaylord MI 20141213 _ DIII Gaylord Showcase 1435
1436 Grosse Ile MI 0 8 Gibraltar Carlson MI 20141216 _ SEHL League Game 1436
1721 Grosse Ile MI 5 4 Allen Park MI 20141220     1721
2655 Grosse Ile MI 4 5 Gibraltar Carlson MI 20150106 _ _SEHL League Game 2655
3019 Grosse Ile MI 9 2 Dearborn Heights Crestwood MI 20150109 _ _SEHL Showcase 3019
4803 Grosse Ile MI 2 5 Farmington MI 20150114 _ _ 4803
4858 Grosse Ile MI 6 4 Dearborn MI 20150117 _ _ 4858
4889 Grosse Ile MI 12 0 Monroe MI 20150120 _ _ Huron League Game 4889
4929 Grosse Ile MI 2 1 Big Rapids MI 20150123 _ _ 4929
4958 Grosse Ile MI 1 5 Monroe St Mary CC MI 20150124 _ _SMCC Tournament 4958
5759 Grosse Ile MI 2 5 Woodhaven MI 20150128 _ _ 5759
6097 Grosse Ile MI 3 4 Livonia Churchill MI 20150130 _ _ 6097
8241 Grosse Ile MI 3 4 Riverview Gabriel Richard MI 20150206 _ _ 8241
7551 Grosse Ile MI 4 5 Midland MI 20150212     7551
7556 Grosse Ile MI 0 5 Forest Hills Northern MI 20150213     7556
8248 Grosse Ile MI 1 3 Riverview Gabriel Richard MI 20150217 _ _ 8248
7887 Grosse Ile MI 8 2 Monroe St Mary CC MI 20150220 _ _ 7887
7899 Grosse Ile MI 2 4 Monroe St Mary CC MI 20150221 _ _ 7899
1440 Grosse Pointe North MI 4 5 Walled Lake Western MI 20141117   MIHL South 1440
1443 Grosse Pointe North MI 3 5 Cranbrook MI 20141121   MIHL North 1443
29 Grosse Pointe North MI 1 6 Brother Rice MI 20141122 _ _ 29
114 Grosse Pointe North MI 1 3 Alpena MI 20141128 _ _Huron Shores Showcase 114
1545 Grosse Pointe North MI 8 0 DeWitt/St Johns MI 20141129     1545
1451 Grosse Pointe North MI 1 3 U of D Jesuit MI 20141205   MIHL South 1451
1464 Grosse Pointe North MI 1 2 De La Salle MI 20141213   MIHL South 1464
1468 Grosse Pointe North MI 1 9 Trenton MI 20141217   MIHL South 1468
1701 Grosse Pointe North MI 0 2 Grosse Pointe South MI 20141219     1701
1478 Grosse Pointe North MI 5 0 Traverse City Reps MI 20141220   NonCon 1478
2499 Grosse Pointe North MI 2 7 Utica Eisenhower MI 20150103 _ _ 2499
4781 Grosse Pointe North MI 5 1 Birmingham MI 20150107 _ _ 4781
3022 Grosse Pointe North MI 2 3 Trenton MI 20150110 _ _ 3022
4909 Grosse Pointe North MI 9 1 St Clair Shores MI 20150121 _ _Non League 4909
4969 Grosse Pointe North MI 1 5 Orchard Lake St Marys MI 20150124 _ _MIHL Cross Division 4969
5755 Grosse Pointe North MI 4 5 De La Salle MI 20150128 _ _MIHL South 5755
5789 Grosse Pointe North MI 1 4 U of D Jesuit MI 20150130 _ _MIHL South 5789
6116 Grosse Pointe North MI 0 4 Cranbrook MI 20150131 _ _MIHL Cross Division 6116
6835 Grosse Pointe North MI 4 4 Macomb Dakota MI 20150207 _ _ 6835
7034 Grosse Pointe North MI 3 7 Grosse Pointe South MI 20150212 _ _MIHL Showcase 7034
7518 Grosse Pointe North MI 1 0